<?xml version="1.0" encoding="UTF-8" standalone="no" ?>
<gpx xmlns="http://www.topografix.com/GPX/1/1" xmlns:xsi="http://www.w3.org/2001/XMLSchema-instance" xsi:schemaLocation="http://www.topografix.com/GPX/1/1 http://www.topografix.com/GPX/1/1/gpx.xsd" version="1.1" creator="VisuGPX - https://www.visugpx.com">
  <metadata>
    <name>Fontainebelleau_2023_70 km-11034248</name>
  </metadata>
  <trk>
    <name><![CDATA[Fontainebelleau_2023_70 km-11034248]]></name>
    <trkseg>
      <trkpt lat="48.40456" lon="2.68308">
        <ele>82</ele>
        <time>2023-02-10T10:11:51Z</time>
      </trkpt>
      <trkpt lat="48.40515" lon="2.679">
        <ele>83</ele>
        <time>2023-02-10T10:12:56Z</time>
      </trkpt>
      <trkpt lat="48.40549" lon="2.67645">
        <ele>85</ele>
        <time>2023-02-10T10:13:36Z</time>
      </trkpt>
      <trkpt lat="48.40583" lon="2.67234">
        <ele>92</ele>
        <time>2023-02-10T10:14:40Z</time>
      </trkpt>
      <trkpt lat="48.40611" lon="2.66959">
        <ele>101</ele>
        <time>2023-02-10T10:15:23Z</time>
      </trkpt>
      <trkpt lat="48.40628" lon="2.66841">
        <ele>105</ele>
        <time>2023-02-10T10:15:42Z</time>
      </trkpt>
      <trkpt lat="48.40481" lon="2.66798">
        <ele>95</ele>
        <time>2023-02-10T10:16:17Z</time>
      </trkpt>
      <trkpt lat="48.40042" lon="2.66733">
        <ele>89</ele>
        <time>2023-02-10T10:18:00Z</time>
      </trkpt>
      <trkpt lat="48.40039" lon="2.66723">
        <ele>89</ele>
        <time>2023-02-10T10:18:02Z</time>
      </trkpt>
      <trkpt lat="48.40057" lon="2.6627">
        <ele>96</ele>
        <time>2023-02-10T10:19:12Z</time>
      </trkpt>
      <trkpt lat="48.40082" lon="2.66123">
        <ele>96</ele>
        <time>2023-02-10T10:19:36Z</time>
      </trkpt>
      <trkpt lat="48.40021" lon="2.66113">
        <ele>102</ele>
        <time>2023-02-10T10:19:50Z</time>
      </trkpt>
      <trkpt lat="48.39975" lon="2.66118">
        <ele>107</ele>
        <time>2023-02-10T10:20:01Z</time>
      </trkpt>
      <trkpt lat="48.39895" lon="2.66168">
        <ele>113</ele>
        <time>2023-02-10T10:20:21Z</time>
      </trkpt>
      <trkpt lat="48.39863" lon="2.66155">
        <ele>114</ele>
        <time>2023-02-10T10:20:29Z</time>
      </trkpt>
      <trkpt lat="48.39821" lon="2.66153">
        <ele>112</ele>
        <time>2023-02-10T10:20:39Z</time>
      </trkpt>
      <trkpt lat="48.3978" lon="2.66147">
        <ele>107</ele>
        <time>2023-02-10T10:20:48Z</time>
      </trkpt>
      <trkpt lat="48.39727" lon="2.66123">
        <ele>101</ele>
        <time>2023-02-10T10:21:01Z</time>
      </trkpt>
      <trkpt lat="48.39691" lon="2.66093">
        <ele>98</ele>
        <time>2023-02-10T10:21:11Z</time>
      </trkpt>
      <trkpt lat="48.39633" lon="2.65925">
        <ele>93</ele>
        <time>2023-02-10T10:21:40Z</time>
      </trkpt>
      <trkpt lat="48.39677" lon="2.65732">
        <ele>94</ele>
        <time>2023-02-10T10:22:12Z</time>
      </trkpt>
      <trkpt lat="48.39712" lon="2.65525">
        <ele>91</ele>
        <time>2023-02-10T10:22:45Z</time>
      </trkpt>
      <trkpt lat="48.39739" lon="2.6532">
        <ele>95</ele>
        <time>2023-02-10T10:23:17Z</time>
      </trkpt>
      <trkpt lat="48.3977" lon="2.65005">
        <ele>97</ele>
        <time>2023-02-10T10:24:07Z</time>
      </trkpt>
      <trkpt lat="48.39803" lon="2.64729">
        <ele>101</ele>
        <time>2023-02-10T10:24:50Z</time>
      </trkpt>
      <trkpt lat="48.3978" lon="2.64642">
        <ele>100</ele>
        <time>2023-02-10T10:25:05Z</time>
      </trkpt>
      <trkpt lat="48.39773" lon="2.64292">
        <ele>99</ele>
        <time>2023-02-10T10:25:59Z</time>
      </trkpt>
      <trkpt lat="48.3982" lon="2.63943">
        <ele>104</ele>
        <time>2023-02-10T10:26:54Z</time>
      </trkpt>
      <trkpt lat="48.39829" lon="2.63767">
        <ele>110</ele>
        <time>2023-02-10T10:27:22Z</time>
      </trkpt>
      <trkpt lat="48.39834" lon="2.6371">
        <ele>114</ele>
        <time>2023-02-10T10:27:30Z</time>
      </trkpt>
      <trkpt lat="48.39766" lon="2.63581">
        <ele>126</ele>
        <time>2023-02-10T10:27:56Z</time>
      </trkpt>
      <trkpt lat="48.39705" lon="2.63596">
        <ele>129</ele>
        <time>2023-02-10T10:28:10Z</time>
      </trkpt>
      <trkpt lat="48.3968" lon="2.63546">
        <ele>133</ele>
        <time>2023-02-10T10:28:20Z</time>
      </trkpt>
      <trkpt lat="48.39603" lon="2.63486">
        <ele>137</ele>
        <time>2023-02-10T10:28:40Z</time>
      </trkpt>
      <trkpt lat="48.39523" lon="2.63519">
        <ele>138</ele>
        <time>2023-02-10T10:29:00Z</time>
      </trkpt>
      <trkpt lat="48.39486" lon="2.63369">
        <ele>138</ele>
        <time>2023-02-10T10:29:25Z</time>
      </trkpt>
      <trkpt lat="48.39434" lon="2.63139">
        <ele>134</ele>
        <time>2023-02-10T10:30:02Z</time>
      </trkpt>
      <trkpt lat="48.39406" lon="2.63132">
        <ele>135</ele>
        <time>2023-02-10T10:30:09Z</time>
      </trkpt>
      <trkpt lat="48.39376" lon="2.6313">
        <ele>134</ele>
        <time>2023-02-10T10:30:16Z</time>
      </trkpt>
      <trkpt lat="48.39352" lon="2.63141">
        <ele>134</ele>
        <time>2023-02-10T10:30:22Z</time>
      </trkpt>
      <trkpt lat="48.39342" lon="2.63162">
        <ele>135</ele>
        <time>2023-02-10T10:30:26Z</time>
      </trkpt>
      <trkpt lat="48.3933" lon="2.63226">
        <ele>135</ele>
        <time>2023-02-10T10:30:36Z</time>
      </trkpt>
      <trkpt lat="48.39312" lon="2.63464">
        <ele>128</ele>
        <time>2023-02-10T10:31:13Z</time>
      </trkpt>
      <trkpt lat="48.39297" lon="2.63572">
        <ele>125</ele>
        <time>2023-02-10T10:31:30Z</time>
      </trkpt>
      <trkpt lat="48.39314" lon="2.63683">
        <ele>118</ele>
        <time>2023-02-10T10:31:48Z</time>
      </trkpt>
      <trkpt lat="48.39266" lon="2.63791">
        <ele>115</ele>
        <time>2023-02-10T10:32:08Z</time>
      </trkpt>
      <trkpt lat="48.39262" lon="2.64004">
        <ele>105</ele>
        <time>2023-02-10T10:32:41Z</time>
      </trkpt>
      <trkpt lat="48.39264" lon="2.64266">
        <ele>96</ele>
        <time>2023-02-10T10:33:22Z</time>
      </trkpt>
      <trkpt lat="48.39155" lon="2.65064">
        <ele>87</ele>
        <time>2023-02-10T10:35:28Z</time>
      </trkpt>
      <trkpt lat="48.39044" lon="2.65044">
        <ele>101</ele>
        <time>2023-02-10T10:35:54Z</time>
      </trkpt>
      <trkpt lat="48.39019" lon="2.64951">
        <ele>103</ele>
        <time>2023-02-10T10:36:10Z</time>
      </trkpt>
      <trkpt lat="48.38916" lon="2.64908">
        <ele>104</ele>
        <time>2023-02-10T10:36:35Z</time>
      </trkpt>
      <trkpt lat="48.38873" lon="2.64905">
        <ele>101</ele>
        <time>2023-02-10T10:36:45Z</time>
      </trkpt>
      <trkpt lat="48.38745" lon="2.65685">
        <ele>94</ele>
        <time>2023-02-10T10:38:49Z</time>
      </trkpt>
      <trkpt lat="48.38721" lon="2.65786">
        <ele>97</ele>
        <time>2023-02-10T10:39:06Z</time>
      </trkpt>
      <trkpt lat="48.3852" lon="2.6517">
        <ele>127</ele>
        <time>2023-02-10T10:40:52Z</time>
      </trkpt>
      <trkpt lat="48.38507" lon="2.64962">
        <ele>125</ele>
        <time>2023-02-10T10:41:25Z</time>
      </trkpt>
      <trkpt lat="48.38555" lon="2.64854">
        <ele>112</ele>
        <time>2023-02-10T10:41:45Z</time>
      </trkpt>
      <trkpt lat="48.38695" lon="2.65032">
        <ele>103</ele>
        <time>2023-02-10T10:42:28Z</time>
      </trkpt>
      <trkpt lat="48.38662" lon="2.64735">
        <ele>103</ele>
        <time>2023-02-10T10:43:15Z</time>
      </trkpt>
      <trkpt lat="48.38651" lon="2.64582">
        <ele>103</ele>
        <time>2023-02-10T10:43:38Z</time>
      </trkpt>
      <trkpt lat="48.38804" lon="2.64641">
        <ele>105</ele>
        <time>2023-02-10T10:44:15Z</time>
      </trkpt>
      <trkpt lat="48.38857" lon="2.64669">
        <ele>104</ele>
        <time>2023-02-10T10:44:28Z</time>
      </trkpt>
      <trkpt lat="48.38793" lon="2.64225">
        <ele>126</ele>
        <time>2023-02-10T10:45:39Z</time>
      </trkpt>
      <trkpt lat="48.38859" lon="2.64074">
        <ele>128</ele>
        <time>2023-02-10T10:46:07Z</time>
      </trkpt>
      <trkpt lat="48.38969" lon="2.64209">
        <ele>116</ele>
        <time>2023-02-10T10:46:40Z</time>
      </trkpt>
      <trkpt lat="48.38893" lon="2.63753">
        <ele>132</ele>
        <time>2023-02-10T10:47:53Z</time>
      </trkpt>
      <trkpt lat="48.38819" lon="2.63741">
        <ele>130</ele>
        <time>2023-02-10T10:48:10Z</time>
      </trkpt>
      <trkpt lat="48.38581" lon="2.63687">
        <ele>133</ele>
        <time>2023-02-10T10:49:07Z</time>
      </trkpt>
      <trkpt lat="48.38545" lon="2.63096">
        <ele>137</ele>
        <time>2023-02-10T10:50:39Z</time>
      </trkpt>
      <trkpt lat="48.38529" lon="2.63093">
        <ele>137</ele>
        <time>2023-02-10T10:50:42Z</time>
      </trkpt>
      <trkpt lat="48.38518" lon="2.63065">
        <ele>137</ele>
        <time>2023-02-10T10:50:47Z</time>
      </trkpt>
      <trkpt lat="48.38524" lon="2.63042">
        <ele>138</ele>
        <time>2023-02-10T10:50:51Z</time>
      </trkpt>
      <trkpt lat="48.38534" lon="2.63034">
        <ele>138</ele>
        <time>2023-02-10T10:50:54Z</time>
      </trkpt>
      <trkpt lat="48.38338" lon="2.6244">
        <ele>135</ele>
        <time>2023-02-10T10:52:37Z</time>
      </trkpt>
      <trkpt lat="48.38151" lon="2.6189">
        <ele>130</ele>
        <time>2023-02-10T10:54:13Z</time>
      </trkpt>
      <trkpt lat="48.38143" lon="2.61609">
        <ele>133</ele>
        <time>2023-02-10T10:54:56Z</time>
      </trkpt>
      <trkpt lat="48.38139" lon="2.61082">
        <ele>133</ele>
        <time>2023-02-10T10:56:18Z</time>
      </trkpt>
      <trkpt lat="48.37796" lon="2.60691">
        <ele>130</ele>
        <time>2023-02-10T10:57:58Z</time>
      </trkpt>
      <trkpt lat="48.3773" lon="2.60601">
        <ele>130</ele>
        <time>2023-02-10T10:58:19Z</time>
      </trkpt>
      <trkpt lat="48.37538" lon="2.60367">
        <ele>130</ele>
        <time>2023-02-10T10:59:17Z</time>
      </trkpt>
      <trkpt lat="48.37536" lon="2.60341">
        <ele>130</ele>
        <time>2023-02-10T10:59:21Z</time>
      </trkpt>
      <trkpt lat="48.37533" lon="2.60001">
        <ele>131</ele>
        <time>2023-02-10T11:00:14Z</time>
      </trkpt>
      <trkpt lat="48.37533" lon="2.59468">
        <ele>135</ele>
        <time>2023-02-10T11:01:36Z</time>
      </trkpt>
      <trkpt lat="48.37557" lon="2.59442">
        <ele>135</ele>
        <time>2023-02-10T11:01:43Z</time>
      </trkpt>
      <trkpt lat="48.3762" lon="2.59394">
        <ele>133</ele>
        <time>2023-02-10T11:02:00Z</time>
      </trkpt>
      <trkpt lat="48.37808" lon="2.59242">
        <ele>129</ele>
        <time>2023-02-10T11:02:50Z</time>
      </trkpt>
      <trkpt lat="48.37812" lon="2.59233">
        <ele>129</ele>
        <time>2023-02-10T11:02:51Z</time>
      </trkpt>
      <trkpt lat="48.37885" lon="2.59182">
        <ele>126</ele>
        <time>2023-02-10T11:03:10Z</time>
      </trkpt>
      <trkpt lat="48.37963" lon="2.59122">
        <ele>125</ele>
        <time>2023-02-10T11:03:31Z</time>
      </trkpt>
      <trkpt lat="48.37992" lon="2.59097">
        <ele>124</ele>
        <time>2023-02-10T11:03:38Z</time>
      </trkpt>
      <trkpt lat="48.37998" lon="2.59108">
        <ele>124</ele>
        <time>2023-02-10T11:03:41Z</time>
      </trkpt>
      <trkpt lat="48.38001" lon="2.59123">
        <ele>124</ele>
        <time>2023-02-10T11:03:43Z</time>
      </trkpt>
      <trkpt lat="48.37993" lon="2.59458">
        <ele>126</ele>
        <time>2023-02-10T11:04:35Z</time>
      </trkpt>
      <trkpt lat="48.37987" lon="2.59586">
        <ele>127</ele>
        <time>2023-02-10T11:04:55Z</time>
      </trkpt>
      <trkpt lat="48.38005" lon="2.59602">
        <ele>127</ele>
        <time>2023-02-10T11:05:00Z</time>
      </trkpt>
      <trkpt lat="48.38053" lon="2.59618">
        <ele>127</ele>
        <time>2023-02-10T11:05:11Z</time>
      </trkpt>
      <trkpt lat="48.38071" lon="2.59611">
        <ele>127</ele>
        <time>2023-02-10T11:05:16Z</time>
      </trkpt>
      <trkpt lat="48.38167" lon="2.59487">
        <ele>130</ele>
        <time>2023-02-10T11:05:45Z</time>
      </trkpt>
      <trkpt lat="48.38391" lon="2.59178">
        <ele>125</ele>
        <time>2023-02-10T11:06:56Z</time>
      </trkpt>
      <trkpt lat="48.38403" lon="2.59165">
        <ele>124</ele>
        <time>2023-02-10T11:07:00Z</time>
      </trkpt>
      <trkpt lat="48.38439" lon="2.59142">
        <ele>121</ele>
        <time>2023-02-10T11:07:09Z</time>
      </trkpt>
      <trkpt lat="48.38452" lon="2.59129">
        <ele>120</ele>
        <time>2023-02-10T11:07:12Z</time>
      </trkpt>
      <trkpt lat="48.38463" lon="2.5911">
        <ele>119</ele>
        <time>2023-02-10T11:07:16Z</time>
      </trkpt>
      <trkpt lat="48.38467" lon="2.59085">
        <ele>118</ele>
        <time>2023-02-10T11:07:20Z</time>
      </trkpt>
      <trkpt lat="48.38469" lon="2.59012">
        <ele>113</ele>
        <time>2023-02-10T11:07:32Z</time>
      </trkpt>
      <trkpt lat="48.38466" lon="2.58956">
        <ele>110</ele>
        <time>2023-02-10T11:07:40Z</time>
      </trkpt>
      <trkpt lat="48.38462" lon="2.58933">
        <ele>110</ele>
        <time>2023-02-10T11:07:44Z</time>
      </trkpt>
      <trkpt lat="48.38452" lon="2.58909">
        <ele>109</ele>
        <time>2023-02-10T11:07:48Z</time>
      </trkpt>
      <trkpt lat="48.38408" lon="2.58838">
        <ele>106</ele>
        <time>2023-02-10T11:08:03Z</time>
      </trkpt>
      <trkpt lat="48.38368" lon="2.58766">
        <ele>103</ele>
        <time>2023-02-10T11:08:18Z</time>
      </trkpt>
      <trkpt lat="48.38356" lon="2.58752">
        <ele>102</ele>
        <time>2023-02-10T11:08:21Z</time>
      </trkpt>
      <trkpt lat="48.3836" lon="2.58733">
        <ele>102</ele>
        <time>2023-02-10T11:08:25Z</time>
      </trkpt>
      <trkpt lat="48.3837" lon="2.58584">
        <ele>102</ele>
        <time>2023-02-10T11:08:48Z</time>
      </trkpt>
      <trkpt lat="48.38381" lon="2.58499">
        <ele>103</ele>
        <time>2023-02-10T11:09:01Z</time>
      </trkpt>
      <trkpt lat="48.38397" lon="2.5841">
        <ele>101</ele>
        <time>2023-02-10T11:09:16Z</time>
      </trkpt>
      <trkpt lat="48.38407" lon="2.58336">
        <ele>101</ele>
        <time>2023-02-10T11:09:27Z</time>
      </trkpt>
      <trkpt lat="48.38409" lon="2.583">
        <ele>100</ele>
        <time>2023-02-10T11:09:33Z</time>
      </trkpt>
      <trkpt lat="48.38406" lon="2.58225">
        <ele>98</ele>
        <time>2023-02-10T11:09:45Z</time>
      </trkpt>
      <trkpt lat="48.38401" lon="2.58178">
        <ele>98</ele>
        <time>2023-02-10T11:09:52Z</time>
      </trkpt>
      <trkpt lat="48.38404" lon="2.58124">
        <ele>98</ele>
        <time>2023-02-10T11:10:00Z</time>
      </trkpt>
      <trkpt lat="48.38402" lon="2.58105">
        <ele>99</ele>
        <time>2023-02-10T11:10:03Z</time>
      </trkpt>
      <trkpt lat="48.38403" lon="2.58096">
        <ele>99</ele>
        <time>2023-02-10T11:10:05Z</time>
      </trkpt>
      <trkpt lat="48.3841" lon="2.58078">
        <ele>98</ele>
        <time>2023-02-10T11:10:08Z</time>
      </trkpt>
      <trkpt lat="48.38413" lon="2.5804">
        <ele>99</ele>
        <time>2023-02-10T11:10:14Z</time>
      </trkpt>
      <trkpt lat="48.38426" lon="2.57984">
        <ele>99</ele>
        <time>2023-02-10T11:10:23Z</time>
      </trkpt>
      <trkpt lat="48.38431" lon="2.57951">
        <ele>100</ele>
        <time>2023-02-10T11:10:28Z</time>
      </trkpt>
      <trkpt lat="48.38431" lon="2.57925">
        <ele>100</ele>
        <time>2023-02-10T11:10:32Z</time>
      </trkpt>
      <trkpt lat="48.38437" lon="2.57868">
        <ele>99</ele>
        <time>2023-02-10T11:10:41Z</time>
      </trkpt>
      <trkpt lat="48.38444" lon="2.57838">
        <ele>99</ele>
        <time>2023-02-10T11:10:46Z</time>
      </trkpt>
      <trkpt lat="48.38462" lon="2.57783">
        <ele>98</ele>
        <time>2023-02-10T11:10:56Z</time>
      </trkpt>
      <trkpt lat="48.38467" lon="2.57752">
        <ele>97</ele>
        <time>2023-02-10T11:11:01Z</time>
      </trkpt>
      <trkpt lat="48.38476" lon="2.57633">
        <ele>95</ele>
        <time>2023-02-10T11:11:19Z</time>
      </trkpt>
      <trkpt lat="48.38477" lon="2.57595">
        <ele>95</ele>
        <time>2023-02-10T11:11:25Z</time>
      </trkpt>
      <trkpt lat="48.38473" lon="2.57551">
        <ele>95</ele>
        <time>2023-02-10T11:11:32Z</time>
      </trkpt>
      <trkpt lat="48.38477" lon="2.57516">
        <ele>94</ele>
        <time>2023-02-10T11:11:38Z</time>
      </trkpt>
      <trkpt lat="48.38497" lon="2.57455">
        <ele>90</ele>
        <time>2023-02-10T11:11:48Z</time>
      </trkpt>
      <trkpt lat="48.38524" lon="2.57396">
        <ele>91</ele>
        <time>2023-02-10T11:11:59Z</time>
      </trkpt>
      <trkpt lat="48.38538" lon="2.57349">
        <ele>91</ele>
        <time>2023-02-10T11:12:07Z</time>
      </trkpt>
      <trkpt lat="48.3854" lon="2.57316">
        <ele>90</ele>
        <time>2023-02-10T11:12:12Z</time>
      </trkpt>
      <trkpt lat="48.38538" lon="2.57266">
        <ele>90</ele>
        <time>2023-02-10T11:12:20Z</time>
      </trkpt>
      <trkpt lat="48.38532" lon="2.57227">
        <ele>89</ele>
        <time>2023-02-10T11:12:26Z</time>
      </trkpt>
      <trkpt lat="48.38522" lon="2.57193">
        <ele>88</ele>
        <time>2023-02-10T11:12:32Z</time>
      </trkpt>
      <trkpt lat="48.38517" lon="2.57156">
        <ele>88</ele>
        <time>2023-02-10T11:12:38Z</time>
      </trkpt>
      <trkpt lat="48.3853" lon="2.57077">
        <ele>89</ele>
        <time>2023-02-10T11:12:51Z</time>
      </trkpt>
      <trkpt lat="48.38548" lon="2.57018">
        <ele>88</ele>
        <time>2023-02-10T11:13:01Z</time>
      </trkpt>
      <trkpt lat="48.38585" lon="2.56948">
        <ele>86</ele>
        <time>2023-02-10T11:13:15Z</time>
      </trkpt>
      <trkpt lat="48.38592" lon="2.56913">
        <ele>87</ele>
        <time>2023-02-10T11:13:20Z</time>
      </trkpt>
      <trkpt lat="48.38596" lon="2.56842">
        <ele>87</ele>
        <time>2023-02-10T11:13:31Z</time>
      </trkpt>
      <trkpt lat="48.38589" lon="2.56791">
        <ele>87</ele>
        <time>2023-02-10T11:13:39Z</time>
      </trkpt>
      <trkpt lat="48.38589" lon="2.56765">
        <ele>87</ele>
        <time>2023-02-10T11:13:43Z</time>
      </trkpt>
      <trkpt lat="48.38596" lon="2.567">
        <ele>87</ele>
        <time>2023-02-10T11:13:54Z</time>
      </trkpt>
      <trkpt lat="48.38604" lon="2.56658">
        <ele>88</ele>
        <time>2023-02-10T11:14:00Z</time>
      </trkpt>
      <trkpt lat="48.38645" lon="2.56511">
        <ele>84</ele>
        <time>2023-02-10T11:14:25Z</time>
      </trkpt>
      <trkpt lat="48.38676" lon="2.56425">
        <ele>82</ele>
        <time>2023-02-10T11:14:40Z</time>
      </trkpt>
      <trkpt lat="48.38704" lon="2.56357">
        <ele>82</ele>
        <time>2023-02-10T11:14:53Z</time>
      </trkpt>
      <trkpt lat="48.38709" lon="2.56327">
        <ele>81</ele>
        <time>2023-02-10T11:14:57Z</time>
      </trkpt>
      <trkpt lat="48.3874" lon="2.56252">
        <ele>79</ele>
        <time>2023-02-10T11:15:11Z</time>
      </trkpt>
      <trkpt lat="48.3876" lon="2.5618">
        <ele>79</ele>
        <time>2023-02-10T11:15:23Z</time>
      </trkpt>
      <trkpt lat="48.3876" lon="2.56156">
        <ele>79</ele>
        <time>2023-02-10T11:15:27Z</time>
      </trkpt>
      <trkpt lat="48.38773" lon="2.56134">
        <ele>78</ele>
        <time>2023-02-10T11:15:32Z</time>
      </trkpt>
      <trkpt lat="48.38769" lon="2.56115">
        <ele>79</ele>
        <time>2023-02-10T11:15:35Z</time>
      </trkpt>
      <trkpt lat="48.38768" lon="2.56044">
        <ele>79</ele>
        <time>2023-02-10T11:15:46Z</time>
      </trkpt>
      <trkpt lat="48.38765" lon="2.56027">
        <ele>79</ele>
        <time>2023-02-10T11:15:48Z</time>
      </trkpt>
      <trkpt lat="48.38738" lon="2.55974">
        <ele>82</ele>
        <time>2023-02-10T11:15:59Z</time>
      </trkpt>
      <trkpt lat="48.38732" lon="2.55953">
        <ele>83</ele>
        <time>2023-02-10T11:16:02Z</time>
      </trkpt>
      <trkpt lat="48.38739" lon="2.55862">
        <ele>84</ele>
        <time>2023-02-10T11:16:16Z</time>
      </trkpt>
      <trkpt lat="48.38758" lon="2.5573">
        <ele>85</ele>
        <time>2023-02-10T11:16:37Z</time>
      </trkpt>
      <trkpt lat="48.38836" lon="2.55678">
        <ele>82</ele>
        <time>2023-02-10T11:16:57Z</time>
      </trkpt>
      <trkpt lat="48.38878" lon="2.55653">
        <ele>81</ele>
        <time>2023-02-10T11:17:08Z</time>
      </trkpt>
      <trkpt lat="48.39016" lon="2.55614">
        <ele>77</ele>
        <time>2023-02-10T11:17:41Z</time>
      </trkpt>
      <trkpt lat="48.38991" lon="2.55471">
        <ele>76</ele>
        <time>2023-02-10T11:18:04Z</time>
      </trkpt>
      <trkpt lat="48.39006" lon="2.55418">
        <ele>76</ele>
        <time>2023-02-10T11:18:13Z</time>
      </trkpt>
      <trkpt lat="48.38995" lon="2.55367">
        <ele>77</ele>
        <time>2023-02-10T11:18:21Z</time>
      </trkpt>
      <trkpt lat="48.3901" lon="2.55303">
        <ele>78</ele>
        <time>2023-02-10T11:18:31Z</time>
      </trkpt>
      <trkpt lat="48.39045" lon="2.55303">
        <ele>77</ele>
        <time>2023-02-10T11:18:40Z</time>
      </trkpt>
      <trkpt lat="48.39065" lon="2.55107">
        <ele>79</ele>
        <time>2023-02-10T11:19:10Z</time>
      </trkpt>
      <trkpt lat="48.39063" lon="2.55071">
        <ele>79</ele>
        <time>2023-02-10T11:19:16Z</time>
      </trkpt>
      <trkpt lat="48.39065" lon="2.55024">
        <ele>79</ele>
        <time>2023-02-10T11:19:23Z</time>
      </trkpt>
      <trkpt lat="48.39073" lon="2.54992">
        <ele>78</ele>
        <time>2023-02-10T11:19:29Z</time>
      </trkpt>
      <trkpt lat="48.39088" lon="2.54958">
        <ele>78</ele>
        <time>2023-02-10T11:19:35Z</time>
      </trkpt>
      <trkpt lat="48.391" lon="2.54877">
        <ele>79</ele>
        <time>2023-02-10T11:19:48Z</time>
      </trkpt>
      <trkpt lat="48.39058" lon="2.54632">
        <ele>82</ele>
        <time>2023-02-10T11:20:27Z</time>
      </trkpt>
      <trkpt lat="48.39075" lon="2.54496">
        <ele>87</ele>
        <time>2023-02-10T11:20:48Z</time>
      </trkpt>
      <trkpt lat="48.39119" lon="2.54217">
        <ele>96</ele>
        <time>2023-02-10T11:21:33Z</time>
      </trkpt>
      <trkpt lat="48.39144" lon="2.54042">
        <ele>98</ele>
        <time>2023-02-10T11:22:01Z</time>
      </trkpt>
      <trkpt lat="48.39167" lon="2.53916">
        <ele>103</ele>
        <time>2023-02-10T11:22:21Z</time>
      </trkpt>
      <trkpt lat="48.39167" lon="2.53878">
        <ele>105</ele>
        <time>2023-02-10T11:22:27Z</time>
      </trkpt>
      <trkpt lat="48.39187" lon="2.53796">
        <ele>110</ele>
        <time>2023-02-10T11:22:40Z</time>
      </trkpt>
      <trkpt lat="48.39191" lon="2.53742">
        <ele>113</ele>
        <time>2023-02-10T11:22:49Z</time>
      </trkpt>
      <trkpt lat="48.39206" lon="2.53687">
        <ele>115</ele>
        <time>2023-02-10T11:22:58Z</time>
      </trkpt>
      <trkpt lat="48.39227" lon="2.5353">
        <ele>121</ele>
        <time>2023-02-10T11:23:23Z</time>
      </trkpt>
      <trkpt lat="48.39221" lon="2.5345">
        <ele>122</ele>
        <time>2023-02-10T11:23:35Z</time>
      </trkpt>
      <trkpt lat="48.39225" lon="2.53356">
        <ele>123</ele>
        <time>2023-02-10T11:23:50Z</time>
      </trkpt>
      <trkpt lat="48.39213" lon="2.53364">
        <ele>123</ele>
        <time>2023-02-10T11:23:53Z</time>
      </trkpt>
      <trkpt lat="48.3919" lon="2.53393">
        <ele>122</ele>
        <time>2023-02-10T11:24:00Z</time>
      </trkpt>
      <trkpt lat="48.39171" lon="2.53438">
        <ele>121</ele>
        <time>2023-02-10T11:24:08Z</time>
      </trkpt>
      <trkpt lat="48.39143" lon="2.53486">
        <ele>120</ele>
        <time>2023-02-10T11:24:18Z</time>
      </trkpt>
      <trkpt lat="48.39131" lon="2.53519">
        <ele>120</ele>
        <time>2023-02-10T11:24:24Z</time>
      </trkpt>
      <trkpt lat="48.391" lon="2.53572">
        <ele>119</ele>
        <time>2023-02-10T11:24:35Z</time>
      </trkpt>
      <trkpt lat="48.39059" lon="2.53603">
        <ele>119</ele>
        <time>2023-02-10T11:24:46Z</time>
      </trkpt>
      <trkpt lat="48.39042" lon="2.53632">
        <ele>119</ele>
        <time>2023-02-10T11:24:52Z</time>
      </trkpt>
      <trkpt lat="48.39022" lon="2.53654">
        <ele>120</ele>
        <time>2023-02-10T11:24:57Z</time>
      </trkpt>
      <trkpt lat="48.39004" lon="2.53661">
        <ele>121</ele>
        <time>2023-02-10T11:25:02Z</time>
      </trkpt>
      <trkpt lat="48.38988" lon="2.53671">
        <ele>122</ele>
        <time>2023-02-10T11:25:06Z</time>
      </trkpt>
      <trkpt lat="48.38966" lon="2.53679">
        <ele>122</ele>
        <time>2023-02-10T11:25:11Z</time>
      </trkpt>
      <trkpt lat="48.38945" lon="2.53709">
        <ele>121</ele>
        <time>2023-02-10T11:25:18Z</time>
      </trkpt>
      <trkpt lat="48.38916" lon="2.53741">
        <ele>123</ele>
        <time>2023-02-10T11:25:26Z</time>
      </trkpt>
      <trkpt lat="48.38904" lon="2.53762">
        <ele>122</ele>
        <time>2023-02-10T11:25:31Z</time>
      </trkpt>
      <trkpt lat="48.38895" lon="2.53792">
        <ele>120</ele>
        <time>2023-02-10T11:25:36Z</time>
      </trkpt>
      <trkpt lat="48.38894" lon="2.53812">
        <ele>119</ele>
        <time>2023-02-10T11:25:39Z</time>
      </trkpt>
      <trkpt lat="48.38897" lon="2.53835">
        <ele>118</ele>
        <time>2023-02-10T11:25:42Z</time>
      </trkpt>
      <trkpt lat="48.38889" lon="2.53864">
        <ele>117</ele>
        <time>2023-02-10T11:25:47Z</time>
      </trkpt>
      <trkpt lat="48.38886" lon="2.53899">
        <ele>115</ele>
        <time>2023-02-10T11:25:53Z</time>
      </trkpt>
      <trkpt lat="48.3888" lon="2.53915">
        <ele>115</ele>
        <time>2023-02-10T11:25:56Z</time>
      </trkpt>
      <trkpt lat="48.38847" lon="2.53965">
        <ele>117</ele>
        <time>2023-02-10T11:26:07Z</time>
      </trkpt>
      <trkpt lat="48.38823" lon="2.54036">
        <ele>119</ele>
        <time>2023-02-10T11:26:19Z</time>
      </trkpt>
      <trkpt lat="48.38809" lon="2.54113">
        <ele>117</ele>
        <time>2023-02-10T11:26:31Z</time>
      </trkpt>
      <trkpt lat="48.38805" lon="2.54156">
        <ele>115</ele>
        <time>2023-02-10T11:26:38Z</time>
      </trkpt>
      <trkpt lat="48.38798" lon="2.54184">
        <ele>115</ele>
        <time>2023-02-10T11:26:43Z</time>
      </trkpt>
      <trkpt lat="48.38792" lon="2.54191">
        <ele>115</ele>
        <time>2023-02-10T11:26:44Z</time>
      </trkpt>
      <trkpt lat="48.38765" lon="2.54195">
        <ele>116</ele>
        <time>2023-02-10T11:26:51Z</time>
      </trkpt>
      <trkpt lat="48.38766" lon="2.54209">
        <ele>116</ele>
        <time>2023-02-10T11:26:53Z</time>
      </trkpt>
      <trkpt lat="48.38762" lon="2.54258">
        <ele>117</ele>
        <time>2023-02-10T11:27:01Z</time>
      </trkpt>
      <trkpt lat="48.38755" lon="2.54272">
        <ele>117</ele>
        <time>2023-02-10T11:27:03Z</time>
      </trkpt>
      <trkpt lat="48.38733" lon="2.54301">
        <ele>118</ele>
        <time>2023-02-10T11:27:10Z</time>
      </trkpt>
      <trkpt lat="48.38699" lon="2.54336">
        <ele>117</ele>
        <time>2023-02-10T11:27:20Z</time>
      </trkpt>
      <trkpt lat="48.38679" lon="2.54384">
        <ele>117</ele>
        <time>2023-02-10T11:27:29Z</time>
      </trkpt>
      <trkpt lat="48.38676" lon="2.54386">
        <ele>117</ele>
        <time>2023-02-10T11:27:29Z</time>
      </trkpt>
      <trkpt lat="48.38668" lon="2.54362">
        <ele>117</ele>
        <time>2023-02-10T11:27:33Z</time>
      </trkpt>
      <trkpt lat="48.38678" lon="2.5425">
        <ele>118</ele>
        <time>2023-02-10T11:27:51Z</time>
      </trkpt>
      <trkpt lat="48.38686" lon="2.54201">
        <ele>118</ele>
        <time>2023-02-10T11:27:59Z</time>
      </trkpt>
      <trkpt lat="48.38692" lon="2.54132">
        <ele>118</ele>
        <time>2023-02-10T11:28:10Z</time>
      </trkpt>
      <trkpt lat="48.387" lon="2.54074">
        <ele>117</ele>
        <time>2023-02-10T11:28:19Z</time>
      </trkpt>
      <trkpt lat="48.38704" lon="2.53969">
        <ele>115</ele>
        <time>2023-02-10T11:28:35Z</time>
      </trkpt>
      <trkpt lat="48.38712" lon="2.53876">
        <ele>111</ele>
        <time>2023-02-10T11:28:50Z</time>
      </trkpt>
      <trkpt lat="48.38723" lon="2.53839">
        <ele>109</ele>
        <time>2023-02-10T11:28:56Z</time>
      </trkpt>
      <trkpt lat="48.38711" lon="2.53827">
        <ele>109</ele>
        <time>2023-02-10T11:28:59Z</time>
      </trkpt>
      <trkpt lat="48.387" lon="2.53795">
        <ele>108</ele>
        <time>2023-02-10T11:29:05Z</time>
      </trkpt>
      <trkpt lat="48.3869" lon="2.53782">
        <ele>108</ele>
        <time>2023-02-10T11:29:08Z</time>
      </trkpt>
      <trkpt lat="48.38668" lon="2.53783">
        <ele>109</ele>
        <time>2023-02-10T11:29:13Z</time>
      </trkpt>
      <trkpt lat="48.38654" lon="2.53809">
        <ele>111</ele>
        <time>2023-02-10T11:29:18Z</time>
      </trkpt>
      <trkpt lat="48.38641" lon="2.5384">
        <ele>113</ele>
        <time>2023-02-10T11:29:24Z</time>
      </trkpt>
      <trkpt lat="48.3863" lon="2.53876">
        <ele>115</ele>
        <time>2023-02-10T11:29:30Z</time>
      </trkpt>
      <trkpt lat="48.38618" lon="2.53945">
        <ele>116</ele>
        <time>2023-02-10T11:29:41Z</time>
      </trkpt>
      <trkpt lat="48.38593" lon="2.54024">
        <ele>118</ele>
        <time>2023-02-10T11:29:55Z</time>
      </trkpt>
      <trkpt lat="48.38582" lon="2.54051">
        <ele>117</ele>
        <time>2023-02-10T11:30:00Z</time>
      </trkpt>
      <trkpt lat="48.38567" lon="2.54073">
        <ele>118</ele>
        <time>2023-02-10T11:30:05Z</time>
      </trkpt>
      <trkpt lat="48.38525" lon="2.54169">
        <ele>118</ele>
        <time>2023-02-10T11:30:22Z</time>
      </trkpt>
      <trkpt lat="48.38518" lon="2.54202">
        <ele>118</ele>
        <time>2023-02-10T11:30:28Z</time>
      </trkpt>
      <trkpt lat="48.38519" lon="2.54282">
        <ele>119</ele>
        <time>2023-02-10T11:30:40Z</time>
      </trkpt>
      <trkpt lat="48.38515" lon="2.54348">
        <ele>119</ele>
        <time>2023-02-10T11:30:50Z</time>
      </trkpt>
      <trkpt lat="48.38515" lon="2.54411">
        <ele>119</ele>
        <time>2023-02-10T11:31:00Z</time>
      </trkpt>
      <trkpt lat="48.385" lon="2.5452">
        <ele>118</ele>
        <time>2023-02-10T11:31:18Z</time>
      </trkpt>
      <trkpt lat="48.38482" lon="2.54576">
        <ele>119</ele>
        <time>2023-02-10T11:31:27Z</time>
      </trkpt>
      <trkpt lat="48.38471" lon="2.54586">
        <ele>119</ele>
        <time>2023-02-10T11:31:30Z</time>
      </trkpt>
      <trkpt lat="48.38453" lon="2.54579">
        <ele>120</ele>
        <time>2023-02-10T11:31:35Z</time>
      </trkpt>
      <trkpt lat="48.38426" lon="2.54602">
        <ele>119</ele>
        <time>2023-02-10T11:31:42Z</time>
      </trkpt>
      <trkpt lat="48.38404" lon="2.54612">
        <ele>119</ele>
        <time>2023-02-10T11:31:47Z</time>
      </trkpt>
      <trkpt lat="48.38388" lon="2.54615">
        <ele>118</ele>
        <time>2023-02-10T11:31:51Z</time>
      </trkpt>
      <trkpt lat="48.38359" lon="2.54632">
        <ele>118</ele>
        <time>2023-02-10T11:31:58Z</time>
      </trkpt>
      <trkpt lat="48.38328" lon="2.54646">
        <ele>118</ele>
        <time>2023-02-10T11:32:06Z</time>
      </trkpt>
      <trkpt lat="48.38298" lon="2.54654">
        <ele>119</ele>
        <time>2023-02-10T11:32:13Z</time>
      </trkpt>
      <trkpt lat="48.38262" lon="2.5466">
        <ele>119</ele>
        <time>2023-02-10T11:32:21Z</time>
      </trkpt>
      <trkpt lat="48.38251" lon="2.54676">
        <ele>120</ele>
        <time>2023-02-10T11:32:25Z</time>
      </trkpt>
      <trkpt lat="48.38234" lon="2.54683">
        <ele>119</ele>
        <time>2023-02-10T11:32:29Z</time>
      </trkpt>
      <trkpt lat="48.38167" lon="2.54746">
        <ele>113</ele>
        <time>2023-02-10T11:32:47Z</time>
      </trkpt>
      <trkpt lat="48.38142" lon="2.54793">
        <ele>114</ele>
        <time>2023-02-10T11:32:57Z</time>
      </trkpt>
      <trkpt lat="48.38124" lon="2.54841">
        <ele>113</ele>
        <time>2023-02-10T11:33:05Z</time>
      </trkpt>
      <trkpt lat="48.38108" lon="2.54909">
        <ele>112</ele>
        <time>2023-02-10T11:33:17Z</time>
      </trkpt>
      <trkpt lat="48.38095" lon="2.54938">
        <ele>111</ele>
        <time>2023-02-10T11:33:22Z</time>
      </trkpt>
      <trkpt lat="48.38077" lon="2.54991">
        <ele>110</ele>
        <time>2023-02-10T11:33:31Z</time>
      </trkpt>
      <trkpt lat="48.38079" lon="2.55042">
        <ele>110</ele>
        <time>2023-02-10T11:33:39Z</time>
      </trkpt>
      <trkpt lat="48.38068" lon="2.55126">
        <ele>110</ele>
        <time>2023-02-10T11:33:52Z</time>
      </trkpt>
      <trkpt lat="48.38058" lon="2.55175">
        <ele>110</ele>
        <time>2023-02-10T11:34:00Z</time>
      </trkpt>
      <trkpt lat="48.38043" lon="2.55293">
        <ele>109</ele>
        <time>2023-02-10T11:34:19Z</time>
      </trkpt>
      <trkpt lat="48.38031" lon="2.55353">
        <ele>108</ele>
        <time>2023-02-10T11:34:29Z</time>
      </trkpt>
      <trkpt lat="48.38028" lon="2.55378">
        <ele>107</ele>
        <time>2023-02-10T11:34:33Z</time>
      </trkpt>
      <trkpt lat="48.38027" lon="2.55446">
        <ele>105</ele>
        <time>2023-02-10T11:34:43Z</time>
      </trkpt>
      <trkpt lat="48.38014" lon="2.555">
        <ele>104</ele>
        <time>2023-02-10T11:34:52Z</time>
      </trkpt>
      <trkpt lat="48.38018" lon="2.55556">
        <ele>103</ele>
        <time>2023-02-10T11:35:01Z</time>
      </trkpt>
      <trkpt lat="48.38026" lon="2.55589">
        <ele>102</ele>
        <time>2023-02-10T11:35:06Z</time>
      </trkpt>
      <trkpt lat="48.38016" lon="2.55692">
        <ele>101</ele>
        <time>2023-02-10T11:35:22Z</time>
      </trkpt>
      <trkpt lat="48.38018" lon="2.55702">
        <ele>101</ele>
        <time>2023-02-10T11:35:24Z</time>
      </trkpt>
      <trkpt lat="48.38033" lon="2.55737">
        <ele>102</ele>
        <time>2023-02-10T11:35:30Z</time>
      </trkpt>
      <trkpt lat="48.38034" lon="2.55757">
        <ele>102</ele>
        <time>2023-02-10T11:35:34Z</time>
      </trkpt>
      <trkpt lat="48.38029" lon="2.55842">
        <ele>104</ele>
        <time>2023-02-10T11:35:47Z</time>
      </trkpt>
      <trkpt lat="48.38042" lon="2.55968">
        <ele>109</ele>
        <time>2023-02-10T11:36:07Z</time>
      </trkpt>
      <trkpt lat="48.38071" lon="2.56088">
        <ele>109</ele>
        <time>2023-02-10T11:36:26Z</time>
      </trkpt>
      <trkpt lat="48.38108" lon="2.56308">
        <ele>118</ele>
        <time>2023-02-10T11:37:02Z</time>
      </trkpt>
      <trkpt lat="48.38108" lon="2.56352">
        <ele>119</ele>
        <time>2023-02-10T11:37:08Z</time>
      </trkpt>
      <trkpt lat="48.38094" lon="2.56409">
        <ele>119</ele>
        <time>2023-02-10T11:37:18Z</time>
      </trkpt>
      <trkpt lat="48.38074" lon="2.56473">
        <ele>119</ele>
        <time>2023-02-10T11:37:29Z</time>
      </trkpt>
      <trkpt lat="48.38036" lon="2.56572">
        <ele>120</ele>
        <time>2023-02-10T11:37:47Z</time>
      </trkpt>
      <trkpt lat="48.38034" lon="2.56617">
        <ele>120</ele>
        <time>2023-02-10T11:37:54Z</time>
      </trkpt>
      <trkpt lat="48.3802" lon="2.5668">
        <ele>119</ele>
        <time>2023-02-10T11:38:04Z</time>
      </trkpt>
      <trkpt lat="48.3799" lon="2.56713">
        <ele>119</ele>
        <time>2023-02-10T11:38:13Z</time>
      </trkpt>
      <trkpt lat="48.37958" lon="2.56762">
        <ele>120</ele>
        <time>2023-02-10T11:38:23Z</time>
      </trkpt>
      <trkpt lat="48.37878" lon="2.56848">
        <ele>121</ele>
        <time>2023-02-10T11:38:46Z</time>
      </trkpt>
      <trkpt lat="48.37866" lon="2.56869">
        <ele>121</ele>
        <time>2023-02-10T11:38:50Z</time>
      </trkpt>
      <trkpt lat="48.37877" lon="2.56941">
        <ele>121</ele>
        <time>2023-02-10T11:39:02Z</time>
      </trkpt>
      <trkpt lat="48.378" lon="2.57128">
        <ele>120</ele>
        <time>2023-02-10T11:39:36Z</time>
      </trkpt>
      <trkpt lat="48.37765" lon="2.57244">
        <ele>120</ele>
        <time>2023-02-10T11:39:56Z</time>
      </trkpt>
      <trkpt lat="48.37685" lon="2.57965">
        <ele>126</ele>
        <time>2023-02-10T11:41:49Z</time>
      </trkpt>
      <trkpt lat="48.37573" lon="2.57928">
        <ele>126</ele>
        <time>2023-02-10T11:42:16Z</time>
      </trkpt>
      <trkpt lat="48.37527" lon="2.57901">
        <ele>128</ele>
        <time>2023-02-10T11:42:28Z</time>
      </trkpt>
      <trkpt lat="48.37489" lon="2.57918">
        <ele>129</ele>
        <time>2023-02-10T11:42:37Z</time>
      </trkpt>
      <trkpt lat="48.3745" lon="2.57893">
        <ele>130</ele>
        <time>2023-02-10T11:42:47Z</time>
      </trkpt>
      <trkpt lat="48.37436" lon="2.5781">
        <ele>129</ele>
        <time>2023-02-10T11:43:00Z</time>
      </trkpt>
      <trkpt lat="48.37436" lon="2.57743">
        <ele>128</ele>
        <time>2023-02-10T11:43:10Z</time>
      </trkpt>
      <trkpt lat="48.37421" lon="2.57672">
        <ele>127</ele>
        <time>2023-02-10T11:43:22Z</time>
      </trkpt>
      <trkpt lat="48.37419" lon="2.57528">
        <ele>127</ele>
        <time>2023-02-10T11:43:44Z</time>
      </trkpt>
      <trkpt lat="48.37389" lon="2.57408">
        <ele>127</ele>
        <time>2023-02-10T11:44:04Z</time>
      </trkpt>
      <trkpt lat="48.37378" lon="2.57394">
        <ele>127</ele>
        <time>2023-02-10T11:44:08Z</time>
      </trkpt>
      <trkpt lat="48.37353" lon="2.57377">
        <ele>126</ele>
        <time>2023-02-10T11:44:14Z</time>
      </trkpt>
      <trkpt lat="48.37344" lon="2.57361">
        <ele>126</ele>
        <time>2023-02-10T11:44:17Z</time>
      </trkpt>
      <trkpt lat="48.37343" lon="2.57325">
        <ele>125</ele>
        <time>2023-02-10T11:44:23Z</time>
      </trkpt>
      <trkpt lat="48.37352" lon="2.5729">
        <ele>125</ele>
        <time>2023-02-10T11:44:29Z</time>
      </trkpt>
      <trkpt lat="48.37384" lon="2.57216">
        <ele>125</ele>
        <time>2023-02-10T11:44:42Z</time>
      </trkpt>
      <trkpt lat="48.37392" lon="2.57158">
        <ele>125</ele>
        <time>2023-02-10T11:44:51Z</time>
      </trkpt>
      <trkpt lat="48.37398" lon="2.57138">
        <ele>126</ele>
        <time>2023-02-10T11:44:55Z</time>
      </trkpt>
      <trkpt lat="48.37398" lon="2.57114">
        <ele>126</ele>
        <time>2023-02-10T11:44:59Z</time>
      </trkpt>
      <trkpt lat="48.37383" lon="2.57075">
        <ele>126</ele>
        <time>2023-02-10T11:45:06Z</time>
      </trkpt>
      <trkpt lat="48.37406" lon="2.56913">
        <ele>125</ele>
        <time>2023-02-10T11:45:31Z</time>
      </trkpt>
      <trkpt lat="48.37409" lon="2.56866">
        <ele>124</ele>
        <time>2023-02-10T11:45:39Z</time>
      </trkpt>
      <trkpt lat="48.37391" lon="2.56719">
        <ele>121</ele>
        <time>2023-02-10T11:46:02Z</time>
      </trkpt>
      <trkpt lat="48.37374" lon="2.56622">
        <ele>118</ele>
        <time>2023-02-10T11:46:17Z</time>
      </trkpt>
      <trkpt lat="48.37341" lon="2.56523">
        <ele>116</ele>
        <time>2023-02-10T11:46:35Z</time>
      </trkpt>
      <trkpt lat="48.37319" lon="2.56466">
        <ele>117</ele>
        <time>2023-02-10T11:46:45Z</time>
      </trkpt>
      <trkpt lat="48.37202" lon="2.5637">
        <ele>122</ele>
        <time>2023-02-10T11:47:16Z</time>
      </trkpt>
      <trkpt lat="48.37155" lon="2.5631">
        <ele>123</ele>
        <time>2023-02-10T11:47:30Z</time>
      </trkpt>
      <trkpt lat="48.37067" lon="2.56171">
        <ele>121</ele>
        <time>2023-02-10T11:48:00Z</time>
      </trkpt>
      <trkpt lat="48.37048" lon="2.56148">
        <ele>121</ele>
        <time>2023-02-10T11:48:06Z</time>
      </trkpt>
      <trkpt lat="48.37006" lon="2.56139">
        <ele>122</ele>
        <time>2023-02-10T11:48:16Z</time>
      </trkpt>
      <trkpt lat="48.36974" lon="2.56099">
        <ele>123</ele>
        <time>2023-02-10T11:48:25Z</time>
      </trkpt>
      <trkpt lat="48.36993" lon="2.55995">
        <ele>123</ele>
        <time>2023-02-10T11:48:42Z</time>
      </trkpt>
      <trkpt lat="48.37017" lon="2.55931">
        <ele>123</ele>
        <time>2023-02-10T11:48:54Z</time>
      </trkpt>
      <trkpt lat="48.37079" lon="2.55821">
        <ele>122</ele>
        <time>2023-02-10T11:49:16Z</time>
      </trkpt>
      <trkpt lat="48.37132" lon="2.55772">
        <ele>118</ele>
        <time>2023-02-10T11:49:30Z</time>
      </trkpt>
      <trkpt lat="48.37205" lon="2.5567">
        <ele>110</ele>
        <time>2023-02-10T11:49:54Z</time>
      </trkpt>
      <trkpt lat="48.37233" lon="2.5562">
        <ele>109</ele>
        <time>2023-02-10T11:50:04Z</time>
      </trkpt>
      <trkpt lat="48.37264" lon="2.55455">
        <ele>106</ele>
        <time>2023-02-10T11:50:30Z</time>
      </trkpt>
      <trkpt lat="48.37311" lon="2.55376">
        <ele>103</ele>
        <time>2023-02-10T11:50:47Z</time>
      </trkpt>
      <trkpt lat="48.37324" lon="2.55324">
        <ele>102</ele>
        <time>2023-02-10T11:50:55Z</time>
      </trkpt>
      <trkpt lat="48.37348" lon="2.55319">
        <ele>101</ele>
        <time>2023-02-10T11:51:01Z</time>
      </trkpt>
      <trkpt lat="48.37358" lon="2.55292">
        <ele>101</ele>
        <time>2023-02-10T11:51:06Z</time>
      </trkpt>
      <trkpt lat="48.37362" lon="2.55234">
        <ele>101</ele>
        <time>2023-02-10T11:51:15Z</time>
      </trkpt>
      <trkpt lat="48.3739" lon="2.55133">
        <ele>97</ele>
        <time>2023-02-10T11:51:32Z</time>
      </trkpt>
      <trkpt lat="48.37438" lon="2.55052">
        <ele>93</ele>
        <time>2023-02-10T11:51:49Z</time>
      </trkpt>
      <trkpt lat="48.37466" lon="2.55036">
        <ele>92</ele>
        <time>2023-02-10T11:51:56Z</time>
      </trkpt>
      <trkpt lat="48.37491" lon="2.55008">
        <ele>90</ele>
        <time>2023-02-10T11:52:03Z</time>
      </trkpt>
      <trkpt lat="48.37495" lon="2.5492">
        <ele>88</ele>
        <time>2023-02-10T11:52:17Z</time>
      </trkpt>
      <trkpt lat="48.37501" lon="2.54882">
        <ele>86</ele>
        <time>2023-02-10T11:52:23Z</time>
      </trkpt>
      <trkpt lat="48.37502" lon="2.5486">
        <ele>86</ele>
        <time>2023-02-10T11:52:26Z</time>
      </trkpt>
      <trkpt lat="48.37492" lon="2.54755">
        <ele>87</ele>
        <time>2023-02-10T11:52:43Z</time>
      </trkpt>
      <trkpt lat="48.37491" lon="2.54721">
        <ele>87</ele>
        <time>2023-02-10T11:52:48Z</time>
      </trkpt>
      <trkpt lat="48.37486" lon="2.54685">
        <ele>88</ele>
        <time>2023-02-10T11:52:54Z</time>
      </trkpt>
      <trkpt lat="48.37467" lon="2.54416">
        <ele>87</ele>
        <time>2023-02-10T11:53:36Z</time>
      </trkpt>
      <trkpt lat="48.37458" lon="2.54356">
        <ele>89</ele>
        <time>2023-02-10T11:53:45Z</time>
      </trkpt>
      <trkpt lat="48.3747" lon="2.54242">
        <ele>90</ele>
        <time>2023-02-10T11:54:03Z</time>
      </trkpt>
      <trkpt lat="48.37461" lon="2.54163">
        <ele>87</ele>
        <time>2023-02-10T11:54:16Z</time>
      </trkpt>
      <trkpt lat="48.37456" lon="2.54145">
        <ele>86</ele>
        <time>2023-02-10T11:54:19Z</time>
      </trkpt>
      <trkpt lat="48.37426" lon="2.54084">
        <ele>83</ele>
        <time>2023-02-10T11:54:30Z</time>
      </trkpt>
      <trkpt lat="48.37414" lon="2.54034">
        <ele>82</ele>
        <time>2023-02-10T11:54:39Z</time>
      </trkpt>
      <trkpt lat="48.37399" lon="2.53987">
        <ele>81</ele>
        <time>2023-02-10T11:54:47Z</time>
      </trkpt>
      <trkpt lat="48.37398" lon="2.53955">
        <ele>80</ele>
        <time>2023-02-10T11:54:52Z</time>
      </trkpt>
      <trkpt lat="48.37381" lon="2.5393">
        <ele>79</ele>
        <time>2023-02-10T11:54:57Z</time>
      </trkpt>
      <trkpt lat="48.3734" lon="2.53882">
        <ele>79</ele>
        <time>2023-02-10T11:55:09Z</time>
      </trkpt>
      <trkpt lat="48.37306" lon="2.5383">
        <ele>79</ele>
        <time>2023-02-10T11:55:21Z</time>
      </trkpt>
      <trkpt lat="48.37176" lon="2.53598">
        <ele>76</ele>
        <time>2023-02-10T11:56:08Z</time>
      </trkpt>
      <trkpt lat="48.37182" lon="2.53558">
        <ele>76</ele>
        <time>2023-02-10T11:56:14Z</time>
      </trkpt>
      <trkpt lat="48.37182" lon="2.53502">
        <ele>77</ele>
        <time>2023-02-10T11:56:23Z</time>
      </trkpt>
      <trkpt lat="48.37172" lon="2.53478">
        <ele>77</ele>
        <time>2023-02-10T11:56:27Z</time>
      </trkpt>
      <trkpt lat="48.37162" lon="2.53462">
        <ele>77</ele>
        <time>2023-02-10T11:56:31Z</time>
      </trkpt>
      <trkpt lat="48.37085" lon="2.53405">
        <ele>76</ele>
        <time>2023-02-10T11:56:51Z</time>
      </trkpt>
      <trkpt lat="48.37039" lon="2.53365">
        <ele>74</ele>
        <time>2023-02-10T11:57:03Z</time>
      </trkpt>
      <trkpt lat="48.36886" lon="2.53221">
        <ele>75</ele>
        <time>2023-02-10T11:57:45Z</time>
      </trkpt>
      <trkpt lat="48.36822" lon="2.53143">
        <ele>76</ele>
        <time>2023-02-10T11:58:04Z</time>
      </trkpt>
      <trkpt lat="48.36855" lon="2.53289">
        <ele>78</ele>
        <time>2023-02-10T11:58:28Z</time>
      </trkpt>
      <trkpt lat="48.36882" lon="2.53366">
        <ele>80</ele>
        <time>2023-02-10T11:58:42Z</time>
      </trkpt>
      <trkpt lat="48.36899" lon="2.53438">
        <ele>80</ele>
        <time>2023-02-10T11:58:54Z</time>
      </trkpt>
      <trkpt lat="48.36899" lon="2.53455">
        <ele>82</ele>
        <time>2023-02-10T11:58:56Z</time>
      </trkpt>
      <trkpt lat="48.36895" lon="2.5348">
        <ele>85</ele>
        <time>2023-02-10T11:59:00Z</time>
      </trkpt>
      <trkpt lat="48.36886" lon="2.53502">
        <ele>88</ele>
        <time>2023-02-10T11:59:04Z</time>
      </trkpt>
      <trkpt lat="48.36874" lon="2.53575">
        <ele>100</ele>
        <time>2023-02-10T11:59:16Z</time>
      </trkpt>
      <trkpt lat="48.36874" lon="2.53643">
        <ele>108</ele>
        <time>2023-02-10T11:59:27Z</time>
      </trkpt>
      <trkpt lat="48.3687" lon="2.53681">
        <ele>111</ele>
        <time>2023-02-10T11:59:32Z</time>
      </trkpt>
      <trkpt lat="48.36845" lon="2.53729">
        <ele>115</ele>
        <time>2023-02-10T11:59:42Z</time>
      </trkpt>
      <trkpt lat="48.36836" lon="2.53815">
        <ele>120</ele>
        <time>2023-02-10T11:59:55Z</time>
      </trkpt>
      <trkpt lat="48.36816" lon="2.53916">
        <ele>122</ele>
        <time>2023-02-10T12:00:12Z</time>
      </trkpt>
      <trkpt lat="48.36813" lon="2.53963">
        <ele>122</ele>
        <time>2023-02-10T12:00:19Z</time>
      </trkpt>
      <trkpt lat="48.36815" lon="2.53985">
        <ele>122</ele>
        <time>2023-02-10T12:00:23Z</time>
      </trkpt>
      <trkpt lat="48.36833" lon="2.54075">
        <ele>122</ele>
        <time>2023-02-10T12:00:37Z</time>
      </trkpt>
      <trkpt lat="48.36848" lon="2.54117">
        <ele>121</ele>
        <time>2023-02-10T12:00:45Z</time>
      </trkpt>
      <trkpt lat="48.36854" lon="2.54143">
        <ele>121</ele>
        <time>2023-02-10T12:00:49Z</time>
      </trkpt>
      <trkpt lat="48.36872" lon="2.54245">
        <ele>120</ele>
        <time>2023-02-10T12:01:05Z</time>
      </trkpt>
      <trkpt lat="48.3689" lon="2.54367">
        <ele>119</ele>
        <time>2023-02-10T12:01:25Z</time>
      </trkpt>
      <trkpt lat="48.36891" lon="2.54405">
        <ele>119</ele>
        <time>2023-02-10T12:01:30Z</time>
      </trkpt>
      <trkpt lat="48.36881" lon="2.54499">
        <ele>119</ele>
        <time>2023-02-10T12:01:45Z</time>
      </trkpt>
      <trkpt lat="48.36882" lon="2.54537">
        <ele>119</ele>
        <time>2023-02-10T12:01:51Z</time>
      </trkpt>
      <trkpt lat="48.36873" lon="2.54598">
        <ele>119</ele>
        <time>2023-02-10T12:02:01Z</time>
      </trkpt>
      <trkpt lat="48.36868" lon="2.54612">
        <ele>119</ele>
        <time>2023-02-10T12:02:03Z</time>
      </trkpt>
      <trkpt lat="48.36859" lon="2.54621">
        <ele>119</ele>
        <time>2023-02-10T12:02:06Z</time>
      </trkpt>
      <trkpt lat="48.36843" lon="2.54629">
        <ele>119</ele>
        <time>2023-02-10T12:02:10Z</time>
      </trkpt>
      <trkpt lat="48.3681" lon="2.54656">
        <ele>119</ele>
        <time>2023-02-10T12:02:19Z</time>
      </trkpt>
      <trkpt lat="48.368" lon="2.54661">
        <ele>119</ele>
        <time>2023-02-10T12:02:21Z</time>
      </trkpt>
      <trkpt lat="48.36778" lon="2.54663">
        <ele>120</ele>
        <time>2023-02-10T12:02:26Z</time>
      </trkpt>
      <trkpt lat="48.36749" lon="2.5466">
        <ele>120</ele>
        <time>2023-02-10T12:02:33Z</time>
      </trkpt>
      <trkpt lat="48.36725" lon="2.54665">
        <ele>121</ele>
        <time>2023-02-10T12:02:39Z</time>
      </trkpt>
      <trkpt lat="48.36694" lon="2.54666">
        <ele>121</ele>
        <time>2023-02-10T12:02:46Z</time>
      </trkpt>
      <trkpt lat="48.36687" lon="2.54669">
        <ele>122</ele>
        <time>2023-02-10T12:02:48Z</time>
      </trkpt>
      <trkpt lat="48.36687" lon="2.5463">
        <ele>121</ele>
        <time>2023-02-10T12:02:54Z</time>
      </trkpt>
      <trkpt lat="48.36691" lon="2.54583">
        <ele>120</ele>
        <time>2023-02-10T12:03:01Z</time>
      </trkpt>
      <trkpt lat="48.36696" lon="2.54546">
        <ele>120</ele>
        <time>2023-02-10T12:03:07Z</time>
      </trkpt>
      <trkpt lat="48.36709" lon="2.54486">
        <ele>120</ele>
        <time>2023-02-10T12:03:17Z</time>
      </trkpt>
      <trkpt lat="48.36719" lon="2.54361">
        <ele>117</ele>
        <time>2023-02-10T12:03:36Z</time>
      </trkpt>
      <trkpt lat="48.36721" lon="2.54294">
        <ele>114</ele>
        <time>2023-02-10T12:03:47Z</time>
      </trkpt>
      <trkpt lat="48.36717" lon="2.54255">
        <ele>113</ele>
        <time>2023-02-10T12:03:53Z</time>
      </trkpt>
      <trkpt lat="48.36711" lon="2.54224">
        <ele>113</ele>
        <time>2023-02-10T12:03:58Z</time>
      </trkpt>
      <trkpt lat="48.36685" lon="2.54117">
        <ele>111</ele>
        <time>2023-02-10T12:04:15Z</time>
      </trkpt>
      <trkpt lat="48.36664" lon="2.54013">
        <ele>107</ele>
        <time>2023-02-10T12:04:32Z</time>
      </trkpt>
      <trkpt lat="48.36666" lon="2.53958">
        <ele>106</ele>
        <time>2023-02-10T12:04:41Z</time>
      </trkpt>
      <trkpt lat="48.36638" lon="2.53865">
        <ele>105</ele>
        <time>2023-02-10T12:04:57Z</time>
      </trkpt>
      <trkpt lat="48.36614" lon="2.53804">
        <ele>104</ele>
        <time>2023-02-10T12:05:08Z</time>
      </trkpt>
      <trkpt lat="48.36597" lon="2.5374">
        <ele>102</ele>
        <time>2023-02-10T12:05:18Z</time>
      </trkpt>
      <trkpt lat="48.36593" lon="2.53684">
        <ele>101</ele>
        <time>2023-02-10T12:05:27Z</time>
      </trkpt>
      <trkpt lat="48.3655" lon="2.53625">
        <ele>101</ele>
        <time>2023-02-10T12:05:41Z</time>
      </trkpt>
      <trkpt lat="48.36536" lon="2.53619">
        <ele>101</ele>
        <time>2023-02-10T12:05:44Z</time>
      </trkpt>
      <trkpt lat="48.36515" lon="2.53621">
        <ele>101</ele>
        <time>2023-02-10T12:05:49Z</time>
      </trkpt>
      <trkpt lat="48.36493" lon="2.53606">
        <ele>99</ele>
        <time>2023-02-10T12:05:55Z</time>
      </trkpt>
      <trkpt lat="48.36464" lon="2.53631">
        <ele>99</ele>
        <time>2023-02-10T12:06:02Z</time>
      </trkpt>
      <trkpt lat="48.36447" lon="2.53629">
        <ele>98</ele>
        <time>2023-02-10T12:06:06Z</time>
      </trkpt>
      <trkpt lat="48.36432" lon="2.53636">
        <ele>97</ele>
        <time>2023-02-10T12:06:10Z</time>
      </trkpt>
      <trkpt lat="48.364" lon="2.53662">
        <ele>96</ele>
        <time>2023-02-10T12:06:19Z</time>
      </trkpt>
      <trkpt lat="48.36348" lon="2.53601">
        <ele>95</ele>
        <time>2023-02-10T12:06:34Z</time>
      </trkpt>
      <trkpt lat="48.36322" lon="2.53539">
        <ele>97</ele>
        <time>2023-02-10T12:06:45Z</time>
      </trkpt>
      <trkpt lat="48.36326" lon="2.53449">
        <ele>97</ele>
        <time>2023-02-10T12:06:59Z</time>
      </trkpt>
      <trkpt lat="48.36376" lon="2.53284">
        <ele>88</ele>
        <time>2023-02-10T12:07:27Z</time>
      </trkpt>
      <trkpt lat="48.36384" lon="2.53228">
        <ele>84</ele>
        <time>2023-02-10T12:07:36Z</time>
      </trkpt>
      <trkpt lat="48.36366" lon="2.53167">
        <ele>79</ele>
        <time>2023-02-10T12:07:47Z</time>
      </trkpt>
      <trkpt lat="48.36362" lon="2.53119">
        <ele>78</ele>
        <time>2023-02-10T12:07:54Z</time>
      </trkpt>
      <trkpt lat="48.36279" lon="2.52948">
        <ele>74</ele>
        <time>2023-02-10T12:08:27Z</time>
      </trkpt>
      <trkpt lat="48.36236" lon="2.52853">
        <ele>74</ele>
        <time>2023-02-10T12:08:45Z</time>
      </trkpt>
      <trkpt lat="48.36217" lon="2.52775">
        <ele>75</ele>
        <time>2023-02-10T12:08:58Z</time>
      </trkpt>
      <trkpt lat="48.36184" lon="2.52686">
        <ele>74</ele>
        <time>2023-02-10T12:09:14Z</time>
      </trkpt>
      <trkpt lat="48.36228" lon="2.52543">
        <ele>74</ele>
        <time>2023-02-10T12:09:38Z</time>
      </trkpt>
      <trkpt lat="48.36275" lon="2.5258">
        <ele>74</ele>
        <time>2023-02-10T12:09:50Z</time>
      </trkpt>
      <trkpt lat="48.36296" lon="2.52602">
        <ele>74</ele>
        <time>2023-02-10T12:09:56Z</time>
      </trkpt>
      <trkpt lat="48.364" lon="2.52696">
        <ele>74</ele>
        <time>2023-02-10T12:10:25Z</time>
      </trkpt>
      <trkpt lat="48.36455" lon="2.52712">
        <ele>75</ele>
        <time>2023-02-10T12:10:38Z</time>
      </trkpt>
      <trkpt lat="48.36515" lon="2.52691">
        <ele>76</ele>
        <time>2023-02-10T12:10:52Z</time>
      </trkpt>
      <trkpt lat="48.36589" lon="2.5267">
        <ele>76</ele>
        <time>2023-02-10T12:11:10Z</time>
      </trkpt>
      <trkpt lat="48.3661" lon="2.52653">
        <ele>76</ele>
        <time>2023-02-10T12:11:15Z</time>
      </trkpt>
      <trkpt lat="48.3663" lon="2.52649">
        <ele>77</ele>
        <time>2023-02-10T12:11:20Z</time>
      </trkpt>
      <trkpt lat="48.36668" lon="2.52646">
        <ele>77</ele>
        <time>2023-02-10T12:11:29Z</time>
      </trkpt>
      <trkpt lat="48.36729" lon="2.52654">
        <ele>77</ele>
        <time>2023-02-10T12:11:43Z</time>
      </trkpt>
      <trkpt lat="48.36765" lon="2.52614">
        <ele>77</ele>
        <time>2023-02-10T12:11:54Z</time>
      </trkpt>
      <trkpt lat="48.36839" lon="2.52522">
        <ele>77</ele>
        <time>2023-02-10T12:12:16Z</time>
      </trkpt>
      <trkpt lat="48.36867" lon="2.52477">
        <ele>76</ele>
        <time>2023-02-10T12:12:26Z</time>
      </trkpt>
      <trkpt lat="48.36886" lon="2.5243">
        <ele>76</ele>
        <time>2023-02-10T12:12:34Z</time>
      </trkpt>
      <trkpt lat="48.36902" lon="2.52399">
        <ele>76</ele>
        <time>2023-02-10T12:12:40Z</time>
      </trkpt>
      <trkpt lat="48.36929" lon="2.52354">
        <ele>76</ele>
        <time>2023-02-10T12:12:50Z</time>
      </trkpt>
      <trkpt lat="48.36944" lon="2.52336">
        <ele>76</ele>
        <time>2023-02-10T12:12:54Z</time>
      </trkpt>
      <trkpt lat="48.36983" lon="2.52297">
        <ele>75</ele>
        <time>2023-02-10T12:13:05Z</time>
      </trkpt>
      <trkpt lat="48.37045" lon="2.52271">
        <ele>76</ele>
        <time>2023-02-10T12:13:20Z</time>
      </trkpt>
      <trkpt lat="48.37115" lon="2.52209">
        <ele>76</ele>
        <time>2023-02-10T12:13:39Z</time>
      </trkpt>
      <trkpt lat="48.37155" lon="2.52182">
        <ele>77</ele>
        <time>2023-02-10T12:13:49Z</time>
      </trkpt>
      <trkpt lat="48.37172" lon="2.52166">
        <ele>77</ele>
        <time>2023-02-10T12:13:54Z</time>
      </trkpt>
      <trkpt lat="48.37175" lon="2.5219">
        <ele>77</ele>
        <time>2023-02-10T12:13:58Z</time>
      </trkpt>
      <trkpt lat="48.37236" lon="2.52444">
        <ele>74</ele>
        <time>2023-02-10T12:14:40Z</time>
      </trkpt>
      <trkpt lat="48.3725" lon="2.52476">
        <ele>75</ele>
        <time>2023-02-10T12:14:46Z</time>
      </trkpt>
      <trkpt lat="48.37099" lon="2.52586">
        <ele>76</ele>
        <time>2023-02-10T12:15:25Z</time>
      </trkpt>
      <trkpt lat="48.37117" lon="2.52619">
        <ele>76</ele>
        <time>2023-02-10T12:15:31Z</time>
      </trkpt>
      <trkpt lat="48.37135" lon="2.52677">
        <ele>77</ele>
        <time>2023-02-10T12:15:41Z</time>
      </trkpt>
      <trkpt lat="48.37139" lon="2.52887">
        <ele>77</ele>
        <time>2023-02-10T12:16:14Z</time>
      </trkpt>
      <trkpt lat="48.3715" lon="2.52944">
        <ele>77</ele>
        <time>2023-02-10T12:16:23Z</time>
      </trkpt>
      <trkpt lat="48.37167" lon="2.52979">
        <ele>76</ele>
        <time>2023-02-10T12:16:30Z</time>
      </trkpt>
      <trkpt lat="48.37174" lon="2.53006">
        <ele>75</ele>
        <time>2023-02-10T12:16:34Z</time>
      </trkpt>
      <trkpt lat="48.3719" lon="2.53029">
        <ele>74</ele>
        <time>2023-02-10T12:16:40Z</time>
      </trkpt>
      <trkpt lat="48.37226" lon="2.53064">
        <ele>73</ele>
        <time>2023-02-10T12:16:50Z</time>
      </trkpt>
      <trkpt lat="48.37239" lon="2.53096">
        <ele>72</ele>
        <time>2023-02-10T12:16:55Z</time>
      </trkpt>
      <trkpt lat="48.37246" lon="2.53119">
        <ele>72</ele>
        <time>2023-02-10T12:16:59Z</time>
      </trkpt>
      <trkpt lat="48.37273" lon="2.53253">
        <ele>75</ele>
        <time>2023-02-10T12:17:21Z</time>
      </trkpt>
      <trkpt lat="48.37296" lon="2.53321">
        <ele>76</ele>
        <time>2023-02-10T12:17:33Z</time>
      </trkpt>
      <trkpt lat="48.37302" lon="2.53367">
        <ele>76</ele>
        <time>2023-02-10T12:17:40Z</time>
      </trkpt>
      <trkpt lat="48.37326" lon="2.53494">
        <ele>76</ele>
        <time>2023-02-10T12:18:01Z</time>
      </trkpt>
      <trkpt lat="48.37355" lon="2.53571">
        <ele>75</ele>
        <time>2023-02-10T12:18:14Z</time>
      </trkpt>
      <trkpt lat="48.37349" lon="2.53594">
        <ele>75</ele>
        <time>2023-02-10T12:18:18Z</time>
      </trkpt>
      <trkpt lat="48.37363" lon="2.53621">
        <ele>75</ele>
        <time>2023-02-10T12:18:24Z</time>
      </trkpt>
      <trkpt lat="48.37561" lon="2.53771">
        <ele>80</ele>
        <time>2023-02-10T12:19:15Z</time>
      </trkpt>
      <trkpt lat="48.37625" lon="2.53815">
        <ele>80</ele>
        <time>2023-02-10T12:19:32Z</time>
      </trkpt>
      <trkpt lat="48.37661" lon="2.53871">
        <ele>81</ele>
        <time>2023-02-10T12:19:44Z</time>
      </trkpt>
      <trkpt lat="48.37664" lon="2.53844">
        <ele>80</ele>
        <time>2023-02-10T12:19:48Z</time>
      </trkpt>
      <trkpt lat="48.37655" lon="2.53794">
        <ele>80</ele>
        <time>2023-02-10T12:19:56Z</time>
      </trkpt>
      <trkpt lat="48.37659" lon="2.53764">
        <ele>80</ele>
        <time>2023-02-10T12:20:01Z</time>
      </trkpt>
      <trkpt lat="48.37653" lon="2.53715">
        <ele>81</ele>
        <time>2023-02-10T12:20:09Z</time>
      </trkpt>
      <trkpt lat="48.37601" lon="2.53557">
        <ele>80</ele>
        <time>2023-02-10T12:20:36Z</time>
      </trkpt>
      <trkpt lat="48.37593" lon="2.5351">
        <ele>79</ele>
        <time>2023-02-10T12:20:43Z</time>
      </trkpt>
      <trkpt lat="48.3759" lon="2.53474">
        <ele>79</ele>
        <time>2023-02-10T12:20:49Z</time>
      </trkpt>
      <trkpt lat="48.37597" lon="2.53424">
        <ele>79</ele>
        <time>2023-02-10T12:20:57Z</time>
      </trkpt>
      <trkpt lat="48.37597" lon="2.5341">
        <ele>79</ele>
        <time>2023-02-10T12:20:59Z</time>
      </trkpt>
      <trkpt lat="48.37584" lon="2.53391">
        <ele>78</ele>
        <time>2023-02-10T12:21:03Z</time>
      </trkpt>
      <trkpt lat="48.37563" lon="2.53382">
        <ele>78</ele>
        <time>2023-02-10T12:21:08Z</time>
      </trkpt>
      <trkpt lat="48.37544" lon="2.53369">
        <ele>77</ele>
        <time>2023-02-10T12:21:13Z</time>
      </trkpt>
      <trkpt lat="48.37522" lon="2.53347">
        <ele>77</ele>
        <time>2023-02-10T12:21:20Z</time>
      </trkpt>
      <trkpt lat="48.37489" lon="2.53297">
        <ele>76</ele>
        <time>2023-02-10T12:21:30Z</time>
      </trkpt>
      <trkpt lat="48.37458" lon="2.53261">
        <ele>76</ele>
        <time>2023-02-10T12:21:40Z</time>
      </trkpt>
      <trkpt lat="48.37432" lon="2.53222">
        <ele>77</ele>
        <time>2023-02-10T12:21:48Z</time>
      </trkpt>
      <trkpt lat="48.37417" lon="2.53207">
        <ele>77</ele>
        <time>2023-02-10T12:21:52Z</time>
      </trkpt>
      <trkpt lat="48.37405" lon="2.53186">
        <ele>77</ele>
        <time>2023-02-10T12:21:57Z</time>
      </trkpt>
      <trkpt lat="48.37388" lon="2.5318">
        <ele>76</ele>
        <time>2023-02-10T12:22:01Z</time>
      </trkpt>
      <trkpt lat="48.37387" lon="2.53162">
        <ele>76</ele>
        <time>2023-02-10T12:22:04Z</time>
      </trkpt>
      <trkpt lat="48.37411" lon="2.53155">
        <ele>77</ele>
        <time>2023-02-10T12:22:09Z</time>
      </trkpt>
      <trkpt lat="48.37579" lon="2.53057">
        <ele>76</ele>
        <time>2023-02-10T12:22:51Z</time>
      </trkpt>
      <trkpt lat="48.37624" lon="2.53034">
        <ele>75</ele>
        <time>2023-02-10T12:23:02Z</time>
      </trkpt>
      <trkpt lat="48.37674" lon="2.53013">
        <ele>75</ele>
        <time>2023-02-10T12:23:15Z</time>
      </trkpt>
      <trkpt lat="48.37692" lon="2.52998">
        <ele>75</ele>
        <time>2023-02-10T12:23:19Z</time>
      </trkpt>
      <trkpt lat="48.37717" lon="2.5299">
        <ele>75</ele>
        <time>2023-02-10T12:23:25Z</time>
      </trkpt>
      <trkpt lat="48.37745" lon="2.53021">
        <ele>76</ele>
        <time>2023-02-10T12:23:33Z</time>
      </trkpt>
      <trkpt lat="48.37769" lon="2.53032">
        <ele>76</ele>
        <time>2023-02-10T12:23:39Z</time>
      </trkpt>
      <trkpt lat="48.37803" lon="2.53043">
        <ele>75</ele>
        <time>2023-02-10T12:23:47Z</time>
      </trkpt>
      <trkpt lat="48.37824" lon="2.53059">
        <ele>75</ele>
        <time>2023-02-10T12:23:53Z</time>
      </trkpt>
      <trkpt lat="48.37851" lon="2.53086">
        <ele>75</ele>
        <time>2023-02-10T12:24:01Z</time>
      </trkpt>
      <trkpt lat="48.37879" lon="2.53133">
        <ele>75</ele>
        <time>2023-02-10T12:24:10Z</time>
      </trkpt>
      <trkpt lat="48.37929" lon="2.53188">
        <ele>73</ele>
        <time>2023-02-10T12:24:25Z</time>
      </trkpt>
      <trkpt lat="48.37961" lon="2.53232">
        <ele>71</ele>
        <time>2023-02-10T12:24:35Z</time>
      </trkpt>
      <trkpt lat="48.37985" lon="2.53251">
        <ele>71</ele>
        <time>2023-02-10T12:24:41Z</time>
      </trkpt>
      <trkpt lat="48.38026" lon="2.53311">
        <ele>72</ele>
        <time>2023-02-10T12:24:55Z</time>
      </trkpt>
      <trkpt lat="48.3807" lon="2.53367">
        <ele>73</ele>
        <time>2023-02-10T12:25:08Z</time>
      </trkpt>
      <trkpt lat="48.38108" lon="2.5343">
        <ele>72</ele>
        <time>2023-02-10T12:25:21Z</time>
      </trkpt>
      <trkpt lat="48.38121" lon="2.5346">
        <ele>73</ele>
        <time>2023-02-10T12:25:27Z</time>
      </trkpt>
      <trkpt lat="48.38138" lon="2.53476">
        <ele>72</ele>
        <time>2023-02-10T12:25:31Z</time>
      </trkpt>
      <trkpt lat="48.38158" lon="2.53468">
        <ele>72</ele>
        <time>2023-02-10T12:25:36Z</time>
      </trkpt>
      <trkpt lat="48.38174" lon="2.5343">
        <ele>72</ele>
        <time>2023-02-10T12:25:43Z</time>
      </trkpt>
      <trkpt lat="48.38198" lon="2.53352">
        <ele>72</ele>
        <time>2023-02-10T12:25:57Z</time>
      </trkpt>
      <trkpt lat="48.38193" lon="2.53279">
        <ele>72</ele>
        <time>2023-02-10T12:26:08Z</time>
      </trkpt>
      <trkpt lat="48.38194" lon="2.53252">
        <ele>72</ele>
        <time>2023-02-10T12:26:12Z</time>
      </trkpt>
      <trkpt lat="48.38204" lon="2.53154">
        <ele>72</ele>
        <time>2023-02-10T12:26:28Z</time>
      </trkpt>
      <trkpt lat="48.38208" lon="2.53135">
        <ele>72</ele>
        <time>2023-02-10T12:26:31Z</time>
      </trkpt>
      <trkpt lat="48.38233" lon="2.53085">
        <ele>72</ele>
        <time>2023-02-10T12:26:40Z</time>
      </trkpt>
      <trkpt lat="48.38244" lon="2.53053">
        <ele>72</ele>
        <time>2023-02-10T12:26:46Z</time>
      </trkpt>
      <trkpt lat="48.38259" lon="2.53029">
        <ele>72</ele>
        <time>2023-02-10T12:26:51Z</time>
      </trkpt>
      <trkpt lat="48.38302" lon="2.5292">
        <ele>75</ele>
        <time>2023-02-10T12:27:11Z</time>
      </trkpt>
      <trkpt lat="48.38312" lon="2.5288">
        <ele>75</ele>
        <time>2023-02-10T12:27:17Z</time>
      </trkpt>
      <trkpt lat="48.38328" lon="2.52831">
        <ele>74</ele>
        <time>2023-02-10T12:27:26Z</time>
      </trkpt>
      <trkpt lat="48.38329" lon="2.52782">
        <ele>73</ele>
        <time>2023-02-10T12:27:33Z</time>
      </trkpt>
      <trkpt lat="48.38338" lon="2.52753">
        <ele>73</ele>
        <time>2023-02-10T12:27:38Z</time>
      </trkpt>
      <trkpt lat="48.38343" lon="2.52695">
        <ele>74</ele>
        <time>2023-02-10T12:27:47Z</time>
      </trkpt>
      <trkpt lat="48.38341" lon="2.52655">
        <ele>74</ele>
        <time>2023-02-10T12:27:54Z</time>
      </trkpt>
      <trkpt lat="48.38335" lon="2.52626">
        <ele>73</ele>
        <time>2023-02-10T12:27:58Z</time>
      </trkpt>
      <trkpt lat="48.38304" lon="2.52549">
        <ele>71</ele>
        <time>2023-02-10T12:28:12Z</time>
      </trkpt>
      <trkpt lat="48.38293" lon="2.52511">
        <ele>71</ele>
        <time>2023-02-10T12:28:19Z</time>
      </trkpt>
      <trkpt lat="48.38292" lon="2.52483">
        <ele>71</ele>
        <time>2023-02-10T12:28:23Z</time>
      </trkpt>
      <trkpt lat="48.38298" lon="2.52465">
        <ele>71</ele>
        <time>2023-02-10T12:28:26Z</time>
      </trkpt>
      <trkpt lat="48.38332" lon="2.52422">
        <ele>74</ele>
        <time>2023-02-10T12:28:37Z</time>
      </trkpt>
      <trkpt lat="48.38359" lon="2.52438">
        <ele>75</ele>
        <time>2023-02-10T12:28:43Z</time>
      </trkpt>
      <trkpt lat="48.38399" lon="2.52457">
        <ele>77</ele>
        <time>2023-02-10T12:28:53Z</time>
      </trkpt>
      <trkpt lat="48.38449" lon="2.52472">
        <ele>80</ele>
        <time>2023-02-10T12:29:05Z</time>
      </trkpt>
      <trkpt lat="48.38521" lon="2.52458">
        <ele>85</ele>
        <time>2023-02-10T12:29:22Z</time>
      </trkpt>
      <trkpt lat="48.38581" lon="2.5245">
        <ele>85</ele>
        <time>2023-02-10T12:29:36Z</time>
      </trkpt>
      <trkpt lat="48.38625" lon="2.5243">
        <ele>83</ele>
        <time>2023-02-10T12:29:47Z</time>
      </trkpt>
      <trkpt lat="48.38646" lon="2.52413">
        <ele>82</ele>
        <time>2023-02-10T12:29:52Z</time>
      </trkpt>
      <trkpt lat="48.38664" lon="2.5238">
        <ele>80</ele>
        <time>2023-02-10T12:29:59Z</time>
      </trkpt>
      <trkpt lat="48.38679" lon="2.52337">
        <ele>80</ele>
        <time>2023-02-10T12:30:07Z</time>
      </trkpt>
      <trkpt lat="48.38688" lon="2.52322">
        <ele>80</ele>
        <time>2023-02-10T12:30:10Z</time>
      </trkpt>
      <trkpt lat="48.38725" lon="2.52112">
        <ele>78</ele>
        <time>2023-02-10T12:30:43Z</time>
      </trkpt>
      <trkpt lat="48.38795" lon="2.51899">
        <ele>74</ele>
        <time>2023-02-10T12:31:20Z</time>
      </trkpt>
      <trkpt lat="48.38811" lon="2.51833">
        <ele>76</ele>
        <time>2023-02-10T12:31:31Z</time>
      </trkpt>
      <trkpt lat="48.38824" lon="2.51618">
        <ele>74</ele>
        <time>2023-02-10T12:32:05Z</time>
      </trkpt>
      <trkpt lat="48.38828" lon="2.51592">
        <ele>73</ele>
        <time>2023-02-10T12:32:09Z</time>
      </trkpt>
      <trkpt lat="48.38906" lon="2.51732">
        <ele>71</ele>
        <time>2023-02-10T12:32:37Z</time>
      </trkpt>
      <trkpt lat="48.3896" lon="2.51839">
        <ele>72</ele>
        <time>2023-02-10T12:32:58Z</time>
      </trkpt>
      <trkpt lat="48.3898" lon="2.51873">
        <ele>73</ele>
        <time>2023-02-10T12:33:05Z</time>
      </trkpt>
      <trkpt lat="48.39007" lon="2.51909">
        <ele>74</ele>
        <time>2023-02-10T12:33:13Z</time>
      </trkpt>
      <trkpt lat="48.3904" lon="2.52044">
        <ele>78</ele>
        <time>2023-02-10T12:33:36Z</time>
      </trkpt>
      <trkpt lat="48.39058" lon="2.52058">
        <ele>78</ele>
        <time>2023-02-10T12:33:40Z</time>
      </trkpt>
      <trkpt lat="48.39078" lon="2.52055">
        <ele>77</ele>
        <time>2023-02-10T12:33:45Z</time>
      </trkpt>
      <trkpt lat="48.39114" lon="2.52061">
        <ele>78</ele>
        <time>2023-02-10T12:33:54Z</time>
      </trkpt>
      <trkpt lat="48.39141" lon="2.52079">
        <ele>78</ele>
        <time>2023-02-10T12:34:01Z</time>
      </trkpt>
      <trkpt lat="48.3916" lon="2.52095">
        <ele>80</ele>
        <time>2023-02-10T12:34:06Z</time>
      </trkpt>
      <trkpt lat="48.39165" lon="2.5214">
        <ele>82</ele>
        <time>2023-02-10T12:34:13Z</time>
      </trkpt>
      <trkpt lat="48.39219" lon="2.5219">
        <ele>87</ele>
        <time>2023-02-10T12:34:27Z</time>
      </trkpt>
      <trkpt lat="48.39239" lon="2.52215">
        <ele>89</ele>
        <time>2023-02-10T12:34:34Z</time>
      </trkpt>
      <trkpt lat="48.39256" lon="2.52221">
        <ele>90</ele>
        <time>2023-02-10T12:34:38Z</time>
      </trkpt>
      <trkpt lat="48.39272" lon="2.52239">
        <ele>93</ele>
        <time>2023-02-10T12:34:42Z</time>
      </trkpt>
      <trkpt lat="48.39282" lon="2.5231">
        <ele>98</ele>
        <time>2023-02-10T12:34:54Z</time>
      </trkpt>
      <trkpt lat="48.39287" lon="2.52406">
        <ele>102</ele>
        <time>2023-02-10T12:35:08Z</time>
      </trkpt>
      <trkpt lat="48.39297" lon="2.5251">
        <ele>104</ele>
        <time>2023-02-10T12:35:25Z</time>
      </trkpt>
      <trkpt lat="48.39325" lon="2.52518">
        <ele>103</ele>
        <time>2023-02-10T12:35:31Z</time>
      </trkpt>
      <trkpt lat="48.39351" lon="2.5256">
        <ele>107</ele>
        <time>2023-02-10T12:35:40Z</time>
      </trkpt>
      <trkpt lat="48.39348" lon="2.52672">
        <ele>114</ele>
        <time>2023-02-10T12:35:58Z</time>
      </trkpt>
      <trkpt lat="48.39312" lon="2.52834">
        <ele>120</ele>
        <time>2023-02-10T12:36:24Z</time>
      </trkpt>
      <trkpt lat="48.39279" lon="2.52919">
        <ele>122</ele>
        <time>2023-02-10T12:36:39Z</time>
      </trkpt>
      <trkpt lat="48.39272" lon="2.52949">
        <ele>121</ele>
        <time>2023-02-10T12:36:44Z</time>
      </trkpt>
      <trkpt lat="48.39322" lon="2.52922">
        <ele>124</ele>
        <time>2023-02-10T12:36:57Z</time>
      </trkpt>
      <trkpt lat="48.39362" lon="2.52905">
        <ele>125</ele>
        <time>2023-02-10T12:37:07Z</time>
      </trkpt>
      <trkpt lat="48.39395" lon="2.5285">
        <ele>125</ele>
        <time>2023-02-10T12:37:18Z</time>
      </trkpt>
      <trkpt lat="48.39447" lon="2.52749">
        <ele>125</ele>
        <time>2023-02-10T12:37:38Z</time>
      </trkpt>
      <trkpt lat="48.39468" lon="2.52433">
        <ele>120</ele>
        <time>2023-02-10T12:38:27Z</time>
      </trkpt>
      <trkpt lat="48.39425" lon="2.52305">
        <ele>116</ele>
        <time>2023-02-10T12:38:49Z</time>
      </trkpt>
      <trkpt lat="48.39416" lon="2.52247">
        <ele>115</ele>
        <time>2023-02-10T12:38:59Z</time>
      </trkpt>
      <trkpt lat="48.39426" lon="2.52193">
        <ele>114</ele>
        <time>2023-02-10T12:39:07Z</time>
      </trkpt>
      <trkpt lat="48.39439" lon="2.52073">
        <ele>115</ele>
        <time>2023-02-10T12:39:26Z</time>
      </trkpt>
      <trkpt lat="48.39439" lon="2.52036">
        <ele>114</ele>
        <time>2023-02-10T12:39:32Z</time>
      </trkpt>
      <trkpt lat="48.39443" lon="2.52016">
        <ele>113</ele>
        <time>2023-02-10T12:39:35Z</time>
      </trkpt>
      <trkpt lat="48.39476" lon="2.51914">
        <ele>108</ele>
        <time>2023-02-10T12:39:53Z</time>
      </trkpt>
      <trkpt lat="48.39497" lon="2.51869">
        <ele>104</ele>
        <time>2023-02-10T12:40:01Z</time>
      </trkpt>
      <trkpt lat="48.39502" lon="2.51849">
        <ele>103</ele>
        <time>2023-02-10T12:40:05Z</time>
      </trkpt>
      <trkpt lat="48.39514" lon="2.51771">
        <ele>99</ele>
        <time>2023-02-10T12:40:17Z</time>
      </trkpt>
      <trkpt lat="48.3951" lon="2.5172">
        <ele>97</ele>
        <time>2023-02-10T12:40:25Z</time>
      </trkpt>
      <trkpt lat="48.39519" lon="2.51633">
        <ele>95</ele>
        <time>2023-02-10T12:40:39Z</time>
      </trkpt>
      <trkpt lat="48.3952" lon="2.51565">
        <ele>92</ele>
        <time>2023-02-10T12:40:49Z</time>
      </trkpt>
      <trkpt lat="48.39534" lon="2.51474">
        <ele>86</ele>
        <time>2023-02-10T12:41:04Z</time>
      </trkpt>
      <trkpt lat="48.39545" lon="2.5144">
        <ele>83</ele>
        <time>2023-02-10T12:41:09Z</time>
      </trkpt>
      <trkpt lat="48.39553" lon="2.51431">
        <ele>82</ele>
        <time>2023-02-10T12:41:12Z</time>
      </trkpt>
      <trkpt lat="48.39575" lon="2.5142">
        <ele>80</ele>
        <time>2023-02-10T12:41:17Z</time>
      </trkpt>
      <trkpt lat="48.39589" lon="2.51418">
        <ele>79</ele>
        <time>2023-02-10T12:41:20Z</time>
      </trkpt>
      <trkpt lat="48.39603" lon="2.51425">
        <ele>79</ele>
        <time>2023-02-10T12:41:24Z</time>
      </trkpt>
      <trkpt lat="48.39615" lon="2.51423">
        <ele>79</ele>
        <time>2023-02-10T12:41:27Z</time>
      </trkpt>
      <trkpt lat="48.39663" lon="2.51366">
        <ele>79</ele>
        <time>2023-02-10T12:41:41Z</time>
      </trkpt>
      <trkpt lat="48.39693" lon="2.51229">
        <ele>79</ele>
        <time>2023-02-10T12:42:03Z</time>
      </trkpt>
      <trkpt lat="48.39709" lon="2.51176">
        <ele>78</ele>
        <time>2023-02-10T12:42:12Z</time>
      </trkpt>
      <trkpt lat="48.39756" lon="2.51252">
        <ele>78</ele>
        <time>2023-02-10T12:42:29Z</time>
      </trkpt>
      <trkpt lat="48.39822" lon="2.51343">
        <ele>78</ele>
        <time>2023-02-10T12:42:49Z</time>
      </trkpt>
      <trkpt lat="48.39866" lon="2.51427">
        <ele>81</ele>
        <time>2023-02-10T12:43:06Z</time>
      </trkpt>
      <trkpt lat="48.39958" lon="2.51684">
        <ele>76</ele>
        <time>2023-02-10T12:43:51Z</time>
      </trkpt>
      <trkpt lat="48.39901" lon="2.51853">
        <ele>82</ele>
        <time>2023-02-10T12:44:21Z</time>
      </trkpt>
      <trkpt lat="48.39858" lon="2.51876">
        <ele>86</ele>
        <time>2023-02-10T12:44:31Z</time>
      </trkpt>
      <trkpt lat="48.39825" lon="2.51941">
        <ele>90</ele>
        <time>2023-02-10T12:44:44Z</time>
      </trkpt>
      <trkpt lat="48.3977" lon="2.51976">
        <ele>97</ele>
        <time>2023-02-10T12:44:58Z</time>
      </trkpt>
      <trkpt lat="48.39753" lon="2.52004">
        <ele>97</ele>
        <time>2023-02-10T12:45:04Z</time>
      </trkpt>
      <trkpt lat="48.39714" lon="2.52251">
        <ele>104</ele>
        <time>2023-02-10T12:45:43Z</time>
      </trkpt>
      <trkpt lat="48.39698" lon="2.5228">
        <ele>105</ele>
        <time>2023-02-10T12:45:49Z</time>
      </trkpt>
      <trkpt lat="48.39686" lon="2.5233">
        <ele>105</ele>
        <time>2023-02-10T12:45:57Z</time>
      </trkpt>
      <trkpt lat="48.39686" lon="2.52398">
        <ele>106</ele>
        <time>2023-02-10T12:46:08Z</time>
      </trkpt>
      <trkpt lat="48.39674" lon="2.52432">
        <ele>106</ele>
        <time>2023-02-10T12:46:14Z</time>
      </trkpt>
      <trkpt lat="48.39652" lon="2.52461">
        <ele>108</ele>
        <time>2023-02-10T12:46:21Z</time>
      </trkpt>
      <trkpt lat="48.39646" lon="2.52486">
        <ele>109</ele>
        <time>2023-02-10T12:46:25Z</time>
      </trkpt>
      <trkpt lat="48.39642" lon="2.52589">
        <ele>112</ele>
        <time>2023-02-10T12:46:41Z</time>
      </trkpt>
      <trkpt lat="48.39626" lon="2.52712">
        <ele>116</ele>
        <time>2023-02-10T12:47:00Z</time>
      </trkpt>
      <trkpt lat="48.39605" lon="2.52758">
        <ele>118</ele>
        <time>2023-02-10T12:47:09Z</time>
      </trkpt>
      <trkpt lat="48.39604" lon="2.52858">
        <ele>119</ele>
        <time>2023-02-10T12:47:24Z</time>
      </trkpt>
      <trkpt lat="48.39608" lon="2.52968">
        <ele>119</ele>
        <time>2023-02-10T12:47:41Z</time>
      </trkpt>
      <trkpt lat="48.39596" lon="2.53059">
        <ele>120</ele>
        <time>2023-02-10T12:47:56Z</time>
      </trkpt>
      <trkpt lat="48.39586" lon="2.53185">
        <ele>121</ele>
        <time>2023-02-10T12:48:15Z</time>
      </trkpt>
      <trkpt lat="48.39575" lon="2.53234">
        <ele>120</ele>
        <time>2023-02-10T12:48:24Z</time>
      </trkpt>
      <trkpt lat="48.3955" lon="2.5331">
        <ele>122</ele>
        <time>2023-02-10T12:48:37Z</time>
      </trkpt>
      <trkpt lat="48.39525" lon="2.53451">
        <ele>124</ele>
        <time>2023-02-10T12:48:59Z</time>
      </trkpt>
      <trkpt lat="48.3953" lon="2.53463">
        <ele>123</ele>
        <time>2023-02-10T12:49:01Z</time>
      </trkpt>
      <trkpt lat="48.39531" lon="2.53488">
        <ele>123</ele>
        <time>2023-02-10T12:49:05Z</time>
      </trkpt>
      <trkpt lat="48.3952" lon="2.5359">
        <ele>123</ele>
        <time>2023-02-10T12:49:21Z</time>
      </trkpt>
      <trkpt lat="48.39519" lon="2.53628">
        <ele>122</ele>
        <time>2023-02-10T12:49:27Z</time>
      </trkpt>
      <trkpt lat="48.39507" lon="2.53702">
        <ele>120</ele>
        <time>2023-02-10T12:49:39Z</time>
      </trkpt>
      <trkpt lat="48.39501" lon="2.53725">
        <ele>120</ele>
        <time>2023-02-10T12:49:43Z</time>
      </trkpt>
      <trkpt lat="48.39485" lon="2.53763">
        <ele>119</ele>
        <time>2023-02-10T12:49:50Z</time>
      </trkpt>
      <trkpt lat="48.39479" lon="2.53825">
        <ele>120</ele>
        <time>2023-02-10T12:50:00Z</time>
      </trkpt>
      <trkpt lat="48.39479" lon="2.53928">
        <ele>120</ele>
        <time>2023-02-10T12:50:16Z</time>
      </trkpt>
      <trkpt lat="48.39475" lon="2.53963">
        <ele>121</ele>
        <time>2023-02-10T12:50:21Z</time>
      </trkpt>
      <trkpt lat="48.39459" lon="2.54034">
        <ele>122</ele>
        <time>2023-02-10T12:50:33Z</time>
      </trkpt>
      <trkpt lat="48.39422" lon="2.54129">
        <ele>120</ele>
        <time>2023-02-10T12:50:50Z</time>
      </trkpt>
      <trkpt lat="48.39386" lon="2.5418">
        <ele>118</ele>
        <time>2023-02-10T12:51:01Z</time>
      </trkpt>
      <trkpt lat="48.39361" lon="2.54194">
        <ele>118</ele>
        <time>2023-02-10T12:51:08Z</time>
      </trkpt>
      <trkpt lat="48.39345" lon="2.54207">
        <ele>118</ele>
        <time>2023-02-10T12:51:12Z</time>
      </trkpt>
      <trkpt lat="48.39342" lon="2.54289">
        <ele>113</ele>
        <time>2023-02-10T12:51:25Z</time>
      </trkpt>
      <trkpt lat="48.39346" lon="2.54329">
        <ele>111</ele>
        <time>2023-02-10T12:51:31Z</time>
      </trkpt>
      <trkpt lat="48.39334" lon="2.54453">
        <ele>102</ele>
        <time>2023-02-10T12:51:50Z</time>
      </trkpt>
      <trkpt lat="48.3933" lon="2.54526">
        <ele>96</ele>
        <time>2023-02-10T12:52:02Z</time>
      </trkpt>
      <trkpt lat="48.3934" lon="2.5459">
        <ele>93</ele>
        <time>2023-02-10T12:52:12Z</time>
      </trkpt>
      <trkpt lat="48.39321" lon="2.54785">
        <ele>87</ele>
        <time>2023-02-10T12:52:42Z</time>
      </trkpt>
      <trkpt lat="48.39288" lon="2.55032">
        <ele>80</ele>
        <time>2023-02-10T12:53:21Z</time>
      </trkpt>
      <trkpt lat="48.39285" lon="2.55072">
        <ele>80</ele>
        <time>2023-02-10T12:53:28Z</time>
      </trkpt>
      <trkpt lat="48.39291" lon="2.55107">
        <ele>80</ele>
        <time>2023-02-10T12:53:33Z</time>
      </trkpt>
      <trkpt lat="48.3916" lon="2.54957">
        <ele>80</ele>
        <time>2023-02-10T12:54:12Z</time>
      </trkpt>
      <trkpt lat="48.39117" lon="2.55225">
        <ele>79</ele>
        <time>2023-02-10T12:54:54Z</time>
      </trkpt>
      <trkpt lat="48.39102" lon="2.55327">
        <ele>77</ele>
        <time>2023-02-10T12:55:11Z</time>
      </trkpt>
      <trkpt lat="48.39091" lon="2.55423">
        <ele>74</ele>
        <time>2023-02-10T12:55:26Z</time>
      </trkpt>
      <trkpt lat="48.39073" lon="2.55427">
        <ele>74</ele>
        <time>2023-02-10T12:55:30Z</time>
      </trkpt>
      <trkpt lat="48.39052" lon="2.55439">
        <ele>75</ele>
        <time>2023-02-10T12:55:35Z</time>
      </trkpt>
      <trkpt lat="48.39019" lon="2.55444">
        <ele>76</ele>
        <time>2023-02-10T12:55:43Z</time>
      </trkpt>
      <trkpt lat="48.3901" lon="2.5545">
        <ele>76</ele>
        <time>2023-02-10T12:55:45Z</time>
      </trkpt>
      <trkpt lat="48.38994" lon="2.55453">
        <ele>76</ele>
        <time>2023-02-10T12:55:49Z</time>
      </trkpt>
      <trkpt lat="48.38993" lon="2.55493">
        <ele>76</ele>
        <time>2023-02-10T12:55:55Z</time>
      </trkpt>
      <trkpt lat="48.39007" lon="2.55567">
        <ele>77</ele>
        <time>2023-02-10T12:56:07Z</time>
      </trkpt>
      <trkpt lat="48.39097" lon="2.55528">
        <ele>75</ele>
        <time>2023-02-10T12:56:29Z</time>
      </trkpt>
      <trkpt lat="48.39259" lon="2.55487">
        <ele>76</ele>
        <time>2023-02-10T12:57:07Z</time>
      </trkpt>
      <trkpt lat="48.39286" lon="2.55492">
        <ele>76</ele>
        <time>2023-02-10T12:57:14Z</time>
      </trkpt>
      <trkpt lat="48.39323" lon="2.55521">
        <ele>78</ele>
        <time>2023-02-10T12:57:24Z</time>
      </trkpt>
      <trkpt lat="48.39345" lon="2.55519">
        <ele>78</ele>
        <time>2023-02-10T12:57:29Z</time>
      </trkpt>
      <trkpt lat="48.3937" lon="2.55523">
        <ele>78</ele>
        <time>2023-02-10T12:57:35Z</time>
      </trkpt>
      <trkpt lat="48.39388" lon="2.55534">
        <ele>79</ele>
        <time>2023-02-10T12:57:39Z</time>
      </trkpt>
      <trkpt lat="48.39428" lon="2.55565">
        <ele>80</ele>
        <time>2023-02-10T12:57:50Z</time>
      </trkpt>
      <trkpt lat="48.39466" lon="2.55605">
        <ele>80</ele>
        <time>2023-02-10T12:58:00Z</time>
      </trkpt>
      <trkpt lat="48.39457" lon="2.55865">
        <ele>85</ele>
        <time>2023-02-10T12:58:41Z</time>
      </trkpt>
      <trkpt lat="48.39449" lon="2.55989">
        <ele>85</ele>
        <time>2023-02-10T12:59:00Z</time>
      </trkpt>
      <trkpt lat="48.39426" lon="2.56087">
        <ele>84</ele>
        <time>2023-02-10T12:59:16Z</time>
      </trkpt>
      <trkpt lat="48.39414" lon="2.56192">
        <ele>84</ele>
        <time>2023-02-10T12:59:33Z</time>
      </trkpt>
      <trkpt lat="48.39406" lon="2.56386">
        <ele>79</ele>
        <time>2023-02-10T13:00:03Z</time>
      </trkpt>
      <trkpt lat="48.39364" lon="2.5667">
        <ele>81</ele>
        <time>2023-02-10T13:00:48Z</time>
      </trkpt>
      <trkpt lat="48.39354" lon="2.56757">
        <ele>81</ele>
        <time>2023-02-10T13:01:02Z</time>
      </trkpt>
      <trkpt lat="48.39334" lon="2.56822">
        <ele>83</ele>
        <time>2023-02-10T13:01:13Z</time>
      </trkpt>
      <trkpt lat="48.39341" lon="2.56847">
        <ele>82</ele>
        <time>2023-02-10T13:01:17Z</time>
      </trkpt>
      <trkpt lat="48.39297" lon="2.57276">
        <ele>81</ele>
        <time>2023-02-10T13:02:24Z</time>
      </trkpt>
      <trkpt lat="48.39281" lon="2.57362">
        <ele>83</ele>
        <time>2023-02-10T13:02:38Z</time>
      </trkpt>
      <trkpt lat="48.39252" lon="2.57652">
        <ele>82</ele>
        <time>2023-02-10T13:03:24Z</time>
      </trkpt>
      <trkpt lat="48.39227" lon="2.57698">
        <ele>86</ele>
        <time>2023-02-10T13:03:33Z</time>
      </trkpt>
      <trkpt lat="48.39221" lon="2.57785">
        <ele>86</ele>
        <time>2023-02-10T13:03:46Z</time>
      </trkpt>
      <trkpt lat="48.39229" lon="2.57977">
        <ele>85</ele>
        <time>2023-02-10T13:04:16Z</time>
      </trkpt>
      <trkpt lat="48.39197" lon="2.58101">
        <ele>90</ele>
        <time>2023-02-10T13:04:37Z</time>
      </trkpt>
      <trkpt lat="48.39304" lon="2.58189">
        <ele>83</ele>
        <time>2023-02-10T13:05:05Z</time>
      </trkpt>
      <trkpt lat="48.39363" lon="2.58247">
        <ele>83</ele>
        <time>2023-02-10T13:05:22Z</time>
      </trkpt>
      <trkpt lat="48.39411" lon="2.58287">
        <ele>83</ele>
        <time>2023-02-10T13:05:35Z</time>
      </trkpt>
      <trkpt lat="48.39404" lon="2.58321">
        <ele>85</ele>
        <time>2023-02-10T13:05:40Z</time>
      </trkpt>
      <trkpt lat="48.39424" lon="2.58349">
        <ele>85</ele>
        <time>2023-02-10T13:05:47Z</time>
      </trkpt>
      <trkpt lat="48.39445" lon="2.58398">
        <ele>87</ele>
        <time>2023-02-10T13:05:56Z</time>
      </trkpt>
      <trkpt lat="48.39494" lon="2.58529">
        <ele>89</ele>
        <time>2023-02-10T13:06:19Z</time>
      </trkpt>
      <trkpt lat="48.39517" lon="2.58579">
        <ele>90</ele>
        <time>2023-02-10T13:06:28Z</time>
      </trkpt>
      <trkpt lat="48.39628" lon="2.58857">
        <ele>87</ele>
        <time>2023-02-10T13:07:19Z</time>
      </trkpt>
      <trkpt lat="48.39642" lon="2.58882">
        <ele>87</ele>
        <time>2023-02-10T13:07:24Z</time>
      </trkpt>
      <trkpt lat="48.39657" lon="2.58866">
        <ele>87</ele>
        <time>2023-02-10T13:07:28Z</time>
      </trkpt>
      <trkpt lat="48.39712" lon="2.58849">
        <ele>92</ele>
        <time>2023-02-10T13:07:41Z</time>
      </trkpt>
      <trkpt lat="48.39732" lon="2.58849">
        <ele>94</ele>
        <time>2023-02-10T13:07:46Z</time>
      </trkpt>
      <trkpt lat="48.39746" lon="2.58857">
        <ele>96</ele>
        <time>2023-02-10T13:07:49Z</time>
      </trkpt>
      <trkpt lat="48.39764" lon="2.58872">
        <ele>97</ele>
        <time>2023-02-10T13:07:54Z</time>
      </trkpt>
      <trkpt lat="48.39815" lon="2.58891">
        <ele>102</ele>
        <time>2023-02-10T13:08:06Z</time>
      </trkpt>
      <trkpt lat="48.39825" lon="2.58908">
        <ele>103</ele>
        <time>2023-02-10T13:08:10Z</time>
      </trkpt>
      <trkpt lat="48.39835" lon="2.58941">
        <ele>106</ele>
        <time>2023-02-10T13:08:16Z</time>
      </trkpt>
      <trkpt lat="48.39842" lon="2.58989">
        <ele>109</ele>
        <time>2023-02-10T13:08:23Z</time>
      </trkpt>
      <trkpt lat="48.39847" lon="2.58999">
        <ele>110</ele>
        <time>2023-02-10T13:08:25Z</time>
      </trkpt>
      <trkpt lat="48.39853" lon="2.59002">
        <ele>111</ele>
        <time>2023-02-10T13:08:27Z</time>
      </trkpt>
      <trkpt lat="48.39886" lon="2.58988">
        <ele>113</ele>
        <time>2023-02-10T13:08:35Z</time>
      </trkpt>
      <trkpt lat="48.39895" lon="2.58989">
        <ele>113</ele>
        <time>2023-02-10T13:08:37Z</time>
      </trkpt>
      <trkpt lat="48.39903" lon="2.58995">
        <ele>114</ele>
        <time>2023-02-10T13:08:39Z</time>
      </trkpt>
      <trkpt lat="48.3993" lon="2.59059">
        <ele>114</ele>
        <time>2023-02-10T13:08:51Z</time>
      </trkpt>
      <trkpt lat="48.39932" lon="2.59081">
        <ele>115</ele>
        <time>2023-02-10T13:08:54Z</time>
      </trkpt>
      <trkpt lat="48.39922" lon="2.59126">
        <ele>118</ele>
        <time>2023-02-10T13:09:01Z</time>
      </trkpt>
      <trkpt lat="48.39922" lon="2.59144">
        <ele>119</ele>
        <time>2023-02-10T13:09:04Z</time>
      </trkpt>
      <trkpt lat="48.39935" lon="2.59217">
        <ele>120</ele>
        <time>2023-02-10T13:09:16Z</time>
      </trkpt>
      <trkpt lat="48.39941" lon="2.5927">
        <ele>121</ele>
        <time>2023-02-10T13:09:24Z</time>
      </trkpt>
      <trkpt lat="48.39939" lon="2.59287">
        <ele>121</ele>
        <time>2023-02-10T13:09:27Z</time>
      </trkpt>
      <trkpt lat="48.39932" lon="2.59313">
        <ele>122</ele>
        <time>2023-02-10T13:09:31Z</time>
      </trkpt>
      <trkpt lat="48.3993" lon="2.59347">
        <ele>122</ele>
        <time>2023-02-10T13:09:36Z</time>
      </trkpt>
      <trkpt lat="48.39934" lon="2.5944">
        <ele>121</ele>
        <time>2023-02-10T13:09:51Z</time>
      </trkpt>
      <trkpt lat="48.39903" lon="2.59456">
        <ele>120</ele>
        <time>2023-02-10T13:09:59Z</time>
      </trkpt>
      <trkpt lat="48.39885" lon="2.59472">
        <ele>119</ele>
        <time>2023-02-10T13:10:03Z</time>
      </trkpt>
      <trkpt lat="48.39883" lon="2.59483">
        <ele>119</ele>
        <time>2023-02-10T13:10:05Z</time>
      </trkpt>
      <trkpt lat="48.39886" lon="2.59597">
        <ele>117</ele>
        <time>2023-02-10T13:10:23Z</time>
      </trkpt>
      <trkpt lat="48.39894" lon="2.59757">
        <ele>119</ele>
        <time>2023-02-10T13:10:48Z</time>
      </trkpt>
      <trkpt lat="48.39902" lon="2.59793">
        <ele>119</ele>
        <time>2023-02-10T13:10:54Z</time>
      </trkpt>
      <trkpt lat="48.39907" lon="2.59843">
        <ele>119</ele>
        <time>2023-02-10T13:11:02Z</time>
      </trkpt>
      <trkpt lat="48.39898" lon="2.59876">
        <ele>120</ele>
        <time>2023-02-10T13:11:07Z</time>
      </trkpt>
      <trkpt lat="48.39833" lon="2.60006">
        <ele>119</ele>
        <time>2023-02-10T13:11:32Z</time>
      </trkpt>
      <trkpt lat="48.39787" lon="2.60231">
        <ele>118</ele>
        <time>2023-02-10T13:12:09Z</time>
      </trkpt>
      <trkpt lat="48.39798" lon="2.60243">
        <ele>118</ele>
        <time>2023-02-10T13:12:12Z</time>
      </trkpt>
      <trkpt lat="48.39827" lon="2.60306">
        <ele>119</ele>
        <time>2023-02-10T13:12:24Z</time>
      </trkpt>
      <trkpt lat="48.39864" lon="2.60397">
        <ele>121</ele>
        <time>2023-02-10T13:12:40Z</time>
      </trkpt>
      <trkpt lat="48.39869" lon="2.60403">
        <ele>121</ele>
        <time>2023-02-10T13:12:42Z</time>
      </trkpt>
      <trkpt lat="48.3988" lon="2.60407">
        <ele>121</ele>
        <time>2023-02-10T13:12:45Z</time>
      </trkpt>
      <trkpt lat="48.399" lon="2.60408">
        <ele>121</ele>
        <time>2023-02-10T13:12:49Z</time>
      </trkpt>
      <trkpt lat="48.39916" lon="2.60415">
        <ele>122</ele>
        <time>2023-02-10T13:12:53Z</time>
      </trkpt>
      <trkpt lat="48.39971" lon="2.60457">
        <ele>121</ele>
        <time>2023-02-10T13:13:08Z</time>
      </trkpt>
      <trkpt lat="48.40008" lon="2.60302">
        <ele>124</ele>
        <time>2023-02-10T13:13:33Z</time>
      </trkpt>
      <trkpt lat="48.40023" lon="2.60252">
        <ele>126</ele>
        <time>2023-02-10T13:13:42Z</time>
      </trkpt>
      <trkpt lat="48.40045" lon="2.60198">
        <ele>129</ele>
        <time>2023-02-10T13:13:51Z</time>
      </trkpt>
      <trkpt lat="48.40142" lon="2.59834">
        <ele>130</ele>
        <time>2023-02-10T13:14:52Z</time>
      </trkpt>
      <trkpt lat="48.40188" lon="2.59802">
        <ele>128</ele>
        <time>2023-02-10T13:15:04Z</time>
      </trkpt>
      <trkpt lat="48.40258" lon="2.59764">
        <ele>123</ele>
        <time>2023-02-10T13:15:21Z</time>
      </trkpt>
      <trkpt lat="48.40269" lon="2.59719">
        <ele>122</ele>
        <time>2023-02-10T13:15:29Z</time>
      </trkpt>
      <trkpt lat="48.40275" lon="2.59638">
        <ele>119</ele>
        <time>2023-02-10T13:15:41Z</time>
      </trkpt>
      <trkpt lat="48.40275" lon="2.59554">
        <ele>116</ele>
        <time>2023-02-10T13:15:54Z</time>
      </trkpt>
      <trkpt lat="48.40287" lon="2.59424">
        <ele>111</ele>
        <time>2023-02-10T13:16:15Z</time>
      </trkpt>
      <trkpt lat="48.40289" lon="2.59366">
        <ele>108</ele>
        <time>2023-02-10T13:16:24Z</time>
      </trkpt>
      <trkpt lat="48.40278" lon="2.59291">
        <ele>104</ele>
        <time>2023-02-10T13:16:36Z</time>
      </trkpt>
      <trkpt lat="48.40267" lon="2.59128">
        <ele>95</ele>
        <time>2023-02-10T13:17:01Z</time>
      </trkpt>
      <trkpt lat="48.40234" lon="2.58785">
        <ele>85</ele>
        <time>2023-02-10T13:17:55Z</time>
      </trkpt>
      <trkpt lat="48.40253" lon="2.58543">
        <ele>79</ele>
        <time>2023-02-10T13:18:33Z</time>
      </trkpt>
      <trkpt lat="48.40248" lon="2.58465">
        <ele>79</ele>
        <time>2023-02-10T13:18:45Z</time>
      </trkpt>
      <trkpt lat="48.40257" lon="2.58402">
        <ele>79</ele>
        <time>2023-02-10T13:18:55Z</time>
      </trkpt>
      <trkpt lat="48.4036" lon="2.58475">
        <ele>79</ele>
        <time>2023-02-10T13:19:21Z</time>
      </trkpt>
      <trkpt lat="48.40447" lon="2.58528">
        <ele>79</ele>
        <time>2023-02-10T13:19:43Z</time>
      </trkpt>
      <trkpt lat="48.40495" lon="2.58537">
        <ele>80</ele>
        <time>2023-02-10T13:19:55Z</time>
      </trkpt>
      <trkpt lat="48.40533" lon="2.58563">
        <ele>82</ele>
        <time>2023-02-10T13:20:04Z</time>
      </trkpt>
      <trkpt lat="48.40511" lon="2.58639">
        <ele>83</ele>
        <time>2023-02-10T13:20:17Z</time>
      </trkpt>
      <trkpt lat="48.40516" lon="2.58707">
        <ele>86</ele>
        <time>2023-02-10T13:20:28Z</time>
      </trkpt>
      <trkpt lat="48.40489" lon="2.58818">
        <ele>91</ele>
        <time>2023-02-10T13:20:46Z</time>
      </trkpt>
      <trkpt lat="48.40487" lon="2.58921">
        <ele>95</ele>
        <time>2023-02-10T13:21:02Z</time>
      </trkpt>
      <trkpt lat="48.40522" lon="2.58957">
        <ele>98</ele>
        <time>2023-02-10T13:21:12Z</time>
      </trkpt>
      <trkpt lat="48.40549" lon="2.58998">
        <ele>101</ele>
        <time>2023-02-10T13:21:21Z</time>
      </trkpt>
      <trkpt lat="48.40562" lon="2.5901">
        <ele>103</ele>
        <time>2023-02-10T13:21:25Z</time>
      </trkpt>
      <trkpt lat="48.40592" lon="2.59002">
        <ele>107</ele>
        <time>2023-02-10T13:21:32Z</time>
      </trkpt>
      <trkpt lat="48.40621" lon="2.59021">
        <ele>112</ele>
        <time>2023-02-10T13:21:39Z</time>
      </trkpt>
      <trkpt lat="48.40627" lon="2.59083">
        <ele>114</ele>
        <time>2023-02-10T13:21:49Z</time>
      </trkpt>
      <trkpt lat="48.4062" lon="2.59178">
        <ele>118</ele>
        <time>2023-02-10T13:22:04Z</time>
      </trkpt>
      <trkpt lat="48.40641" lon="2.59201">
        <ele>120</ele>
        <time>2023-02-10T13:22:10Z</time>
      </trkpt>
      <trkpt lat="48.40656" lon="2.59205">
        <ele>121</ele>
        <time>2023-02-10T13:22:13Z</time>
      </trkpt>
      <trkpt lat="48.40675" lon="2.59225">
        <ele>122</ele>
        <time>2023-02-10T13:22:19Z</time>
      </trkpt>
      <trkpt lat="48.40688" lon="2.59217">
        <ele>121</ele>
        <time>2023-02-10T13:22:22Z</time>
      </trkpt>
      <trkpt lat="48.40708" lon="2.59194">
        <ele>120</ele>
        <time>2023-02-10T13:22:28Z</time>
      </trkpt>
      <trkpt lat="48.40716" lon="2.59188">
        <ele>120</ele>
        <time>2023-02-10T13:22:30Z</time>
      </trkpt>
      <trkpt lat="48.40722" lon="2.59192">
        <ele>119</ele>
        <time>2023-02-10T13:22:31Z</time>
      </trkpt>
      <trkpt lat="48.40726" lon="2.59209">
        <ele>118</ele>
        <time>2023-02-10T13:22:34Z</time>
      </trkpt>
      <trkpt lat="48.40725" lon="2.59236">
        <ele>117</ele>
        <time>2023-02-10T13:22:38Z</time>
      </trkpt>
      <trkpt lat="48.40735" lon="2.59265">
        <ele>115</ele>
        <time>2023-02-10T13:22:43Z</time>
      </trkpt>
      <trkpt lat="48.40743" lon="2.59275">
        <ele>114</ele>
        <time>2023-02-10T13:22:46Z</time>
      </trkpt>
      <trkpt lat="48.40756" lon="2.59281">
        <ele>112</ele>
        <time>2023-02-10T13:22:49Z</time>
      </trkpt>
      <trkpt lat="48.4077" lon="2.59282">
        <ele>110</ele>
        <time>2023-02-10T13:22:52Z</time>
      </trkpt>
      <trkpt lat="48.40786" lon="2.59281">
        <ele>108</ele>
        <time>2023-02-10T13:22:56Z</time>
      </trkpt>
      <trkpt lat="48.40802" lon="2.59275">
        <ele>107</ele>
        <time>2023-02-10T13:23:00Z</time>
      </trkpt>
      <trkpt lat="48.40819" lon="2.59264">
        <ele>105</ele>
        <time>2023-02-10T13:23:04Z</time>
      </trkpt>
      <trkpt lat="48.4085" lon="2.59249">
        <ele>101</ele>
        <time>2023-02-10T13:23:12Z</time>
      </trkpt>
      <trkpt lat="48.40923" lon="2.59202">
        <ele>91</ele>
        <time>2023-02-10T13:23:30Z</time>
      </trkpt>
      <trkpt lat="48.40944" lon="2.59198">
        <ele>90</ele>
        <time>2023-02-10T13:23:35Z</time>
      </trkpt>
      <trkpt lat="48.40966" lon="2.5919">
        <ele>88</ele>
        <time>2023-02-10T13:23:41Z</time>
      </trkpt>
      <trkpt lat="48.40983" lon="2.59189">
        <ele>87</ele>
        <time>2023-02-10T13:23:45Z</time>
      </trkpt>
      <trkpt lat="48.40969" lon="2.5943">
        <ele>84</ele>
        <time>2023-02-10T13:24:22Z</time>
      </trkpt>
      <trkpt lat="48.40958" lon="2.59566">
        <ele>85</ele>
        <time>2023-02-10T13:24:43Z</time>
      </trkpt>
      <trkpt lat="48.41144" lon="2.59903">
        <ele>84</ele>
        <time>2023-02-10T13:25:51Z</time>
      </trkpt>
      <trkpt lat="48.41154" lon="2.59925">
        <ele>84</ele>
        <time>2023-02-10T13:25:55Z</time>
      </trkpt>
      <trkpt lat="48.41387" lon="2.60341">
        <ele>82</ele>
        <time>2023-02-10T13:27:20Z</time>
      </trkpt>
      <trkpt lat="48.4151" lon="2.60569">
        <ele>84</ele>
        <time>2023-02-10T13:28:05Z</time>
      </trkpt>
      <trkpt lat="48.41583" lon="2.60697">
        <ele>87</ele>
        <time>2023-02-10T13:28:31Z</time>
      </trkpt>
      <trkpt lat="48.41617" lon="2.60764">
        <ele>88</ele>
        <time>2023-02-10T13:28:45Z</time>
      </trkpt>
      <trkpt lat="48.4145" lon="2.60825">
        <ele>91</ele>
        <time>2023-02-10T13:29:25Z</time>
      </trkpt>
      <trkpt lat="48.41284" lon="2.60881">
        <ele>88</ele>
        <time>2023-02-10T13:30:04Z</time>
      </trkpt>
      <trkpt lat="48.41115" lon="2.60949">
        <ele>94</ele>
        <time>2023-02-10T13:30:45Z</time>
      </trkpt>
      <trkpt lat="48.411" lon="2.60872">
        <ele>95</ele>
        <time>2023-02-10T13:30:58Z</time>
      </trkpt>
      <trkpt lat="48.41085" lon="2.60836">
        <ele>95</ele>
        <time>2023-02-10T13:31:04Z</time>
      </trkpt>
      <trkpt lat="48.41058" lon="2.6081">
        <ele>95</ele>
        <time>2023-02-10T13:31:12Z</time>
      </trkpt>
      <trkpt lat="48.41004" lon="2.60796">
        <ele>96</ele>
        <time>2023-02-10T13:31:25Z</time>
      </trkpt>
      <trkpt lat="48.40921" lon="2.60783">
        <ele>102</ele>
        <time>2023-02-10T13:31:44Z</time>
      </trkpt>
      <trkpt lat="48.40864" lon="2.60795">
        <ele>105</ele>
        <time>2023-02-10T13:31:57Z</time>
      </trkpt>
      <trkpt lat="48.408" lon="2.60815">
        <ele>110</ele>
        <time>2023-02-10T13:32:13Z</time>
      </trkpt>
      <trkpt lat="48.40766" lon="2.60819">
        <ele>113</ele>
        <time>2023-02-10T13:32:21Z</time>
      </trkpt>
      <trkpt lat="48.4075" lon="2.61138">
        <ele>116</ele>
        <time>2023-02-10T13:33:10Z</time>
      </trkpt>
      <trkpt lat="48.4074" lon="2.61276">
        <ele>119</ele>
        <time>2023-02-10T13:33:32Z</time>
      </trkpt>
      <trkpt lat="48.40703" lon="2.61457">
        <ele>125</ele>
        <time>2023-02-10T13:34:01Z</time>
      </trkpt>
      <trkpt lat="48.40642" lon="2.61935">
        <ele>121</ele>
        <time>2023-02-10T13:35:17Z</time>
      </trkpt>
      <trkpt lat="48.40584" lon="2.62323">
        <ele>127</ele>
        <time>2023-02-10T13:36:18Z</time>
      </trkpt>
      <trkpt lat="48.40552" lon="2.62278">
        <ele>129</ele>
        <time>2023-02-10T13:36:28Z</time>
      </trkpt>
      <trkpt lat="48.40515" lon="2.62272">
        <ele>131</ele>
        <time>2023-02-10T13:36:37Z</time>
      </trkpt>
      <trkpt lat="48.40495" lon="2.62279">
        <ele>132</ele>
        <time>2023-02-10T13:36:42Z</time>
      </trkpt>
      <trkpt lat="48.40441" lon="2.61571">
        <ele>135</ele>
        <time>2023-02-10T13:38:32Z</time>
      </trkpt>
      <trkpt lat="48.40427" lon="2.6142">
        <ele>136</ele>
        <time>2023-02-10T13:38:56Z</time>
      </trkpt>
      <trkpt lat="48.40413" lon="2.61415">
        <ele>137</ele>
        <time>2023-02-10T13:38:59Z</time>
      </trkpt>
      <trkpt lat="48.40285" lon="2.61391">
        <ele>131</ele>
        <time>2023-02-10T13:39:30Z</time>
      </trkpt>
      <trkpt lat="48.40276" lon="2.61385">
        <ele>130</ele>
        <time>2023-02-10T13:39:32Z</time>
      </trkpt>
      <trkpt lat="48.40263" lon="2.61371">
        <ele>130</ele>
        <time>2023-02-10T13:39:36Z</time>
      </trkpt>
      <trkpt lat="48.40251" lon="2.61367">
        <ele>130</ele>
        <time>2023-02-10T13:39:38Z</time>
      </trkpt>
      <trkpt lat="48.40193" lon="2.61385">
        <ele>130</ele>
        <time>2023-02-10T13:39:52Z</time>
      </trkpt>
      <trkpt lat="48.40128" lon="2.61388">
        <ele>129</ele>
        <time>2023-02-10T13:40:08Z</time>
      </trkpt>
      <trkpt lat="48.40091" lon="2.614">
        <ele>129</ele>
        <time>2023-02-10T13:40:16Z</time>
      </trkpt>
      <trkpt lat="48.4008" lon="2.61408">
        <ele>130</ele>
        <time>2023-02-10T13:40:19Z</time>
      </trkpt>
      <trkpt lat="48.40061" lon="2.6143">
        <ele>130</ele>
        <time>2023-02-10T13:40:25Z</time>
      </trkpt>
      <trkpt lat="48.40051" lon="2.61434">
        <ele>130</ele>
        <time>2023-02-10T13:40:27Z</time>
      </trkpt>
      <trkpt lat="48.40019" lon="2.61437">
        <ele>130</ele>
        <time>2023-02-10T13:40:35Z</time>
      </trkpt>
      <trkpt lat="48.39994" lon="2.61445">
        <ele>131</ele>
        <time>2023-02-10T13:40:41Z</time>
      </trkpt>
      <trkpt lat="48.3994" lon="2.6144">
        <ele>133</ele>
        <time>2023-02-10T13:40:53Z</time>
      </trkpt>
      <trkpt lat="48.39862" lon="2.61425">
        <ele>135</ele>
        <time>2023-02-10T13:41:12Z</time>
      </trkpt>
      <trkpt lat="48.39734" lon="2.61407">
        <ele>135</ele>
        <time>2023-02-10T13:41:42Z</time>
      </trkpt>
      <trkpt lat="48.39623" lon="2.61819">
        <ele>135</ele>
        <time>2023-02-10T13:42:51Z</time>
      </trkpt>
      <trkpt lat="48.39633" lon="2.61832">
        <ele>135</ele>
        <time>2023-02-10T13:42:54Z</time>
      </trkpt>
      <trkpt lat="48.39787" lon="2.6195">
        <ele>136</ele>
        <time>2023-02-10T13:43:34Z</time>
      </trkpt>
      <trkpt lat="48.40041" lon="2.62536">
        <ele>135</ele>
        <time>2023-02-10T13:45:23Z</time>
      </trkpt>
      <trkpt lat="48.40276" lon="2.62911">
        <ele>142</ele>
        <time>2023-02-10T13:46:43Z</time>
      </trkpt>
      <trkpt lat="48.40292" lon="2.62908">
        <ele>142</ele>
        <time>2023-02-10T13:46:46Z</time>
      </trkpt>
      <trkpt lat="48.40373" lon="2.62949">
        <ele>140</ele>
        <time>2023-02-10T13:47:06Z</time>
      </trkpt>
      <trkpt lat="48.40404" lon="2.62987">
        <ele>140</ele>
        <time>2023-02-10T13:47:16Z</time>
      </trkpt>
      <trkpt lat="48.40447" lon="2.63028">
        <ele>137</ele>
        <time>2023-02-10T13:47:27Z</time>
      </trkpt>
      <trkpt lat="48.4046" lon="2.6318">
        <ele>134</ele>
        <time>2023-02-10T13:47:51Z</time>
      </trkpt>
      <trkpt lat="48.40492" lon="2.63225">
        <ele>135</ele>
        <time>2023-02-10T13:48:01Z</time>
      </trkpt>
      <trkpt lat="48.40412" lon="2.63816">
        <ele>137</ele>
        <time>2023-02-10T13:49:35Z</time>
      </trkpt>
      <trkpt lat="48.40413" lon="2.63845">
        <ele>136</ele>
        <time>2023-02-10T13:49:39Z</time>
      </trkpt>
      <trkpt lat="48.40358" lon="2.64028">
        <ele>134</ele>
        <time>2023-02-10T13:50:11Z</time>
      </trkpt>
      <trkpt lat="48.40306" lon="2.64401">
        <ele>124</ele>
        <time>2023-02-10T13:51:10Z</time>
      </trkpt>
      <trkpt lat="48.40232" lon="2.64893">
        <ele>113</ele>
        <time>2023-02-10T13:52:28Z</time>
      </trkpt>
      <trkpt lat="48.40216" lon="2.65018">
        <ele>109</ele>
        <time>2023-02-10T13:52:48Z</time>
      </trkpt>
      <trkpt lat="48.40172" lon="2.65312">
        <ele>103</ele>
        <time>2023-02-10T13:53:34Z</time>
      </trkpt>
      <trkpt lat="48.40156" lon="2.65428">
        <ele>101</ele>
        <time>2023-02-10T13:53:53Z</time>
      </trkpt>
      <trkpt lat="48.40124" lon="2.65799">
        <ele>102</ele>
        <time>2023-02-10T13:54:51Z</time>
      </trkpt>
      <trkpt lat="48.40118" lon="2.65936">
        <ele>100</ele>
        <time>2023-02-10T13:55:12Z</time>
      </trkpt>
      <trkpt lat="48.40099" lon="2.66039">
        <ele>97</ele>
        <time>2023-02-10T13:55:29Z</time>
      </trkpt>
      <trkpt lat="48.40325" lon="2.66054">
        <ele>96</ele>
        <time>2023-02-10T13:56:21Z</time>
      </trkpt>
      <trkpt lat="48.40378" lon="2.66061">
        <ele>99</ele>
        <time>2023-02-10T13:56:34Z</time>
      </trkpt>
      <trkpt lat="48.40383" lon="2.65538">
        <ele>98</ele>
        <time>2023-02-10T13:57:55Z</time>
      </trkpt>
      <trkpt lat="48.40428" lon="2.65119">
        <ele>104</ele>
        <time>2023-02-10T13:59:01Z</time>
      </trkpt>
      <trkpt lat="48.40438" lon="2.65085">
        <ele>105</ele>
        <time>2023-02-10T13:59:07Z</time>
      </trkpt>
      <trkpt lat="48.40469" lon="2.65029">
        <ele>109</ele>
        <time>2023-02-10T13:59:18Z</time>
      </trkpt>
      <trkpt lat="48.40524" lon="2.6496">
        <ele>112</ele>
        <time>2023-02-10T13:59:35Z</time>
      </trkpt>
      <trkpt lat="48.40553" lon="2.64899">
        <ele>114</ele>
        <time>2023-02-10T13:59:46Z</time>
      </trkpt>
      <trkpt lat="48.40565" lon="2.64879">
        <ele>115</ele>
        <time>2023-02-10T13:59:50Z</time>
      </trkpt>
      <trkpt lat="48.40577" lon="2.64831">
        <ele>117</ele>
        <time>2023-02-10T13:59:58Z</time>
      </trkpt>
      <trkpt lat="48.40579" lon="2.64784">
        <ele>118</ele>
        <time>2023-02-10T14:00:06Z</time>
      </trkpt>
      <trkpt lat="48.40605" lon="2.64663">
        <ele>124</ele>
        <time>2023-02-10T14:00:25Z</time>
      </trkpt>
      <trkpt lat="48.40613" lon="2.64606">
        <ele>126</ele>
        <time>2023-02-10T14:00:34Z</time>
      </trkpt>
      <trkpt lat="48.40595" lon="2.64523">
        <ele>127</ele>
        <time>2023-02-10T14:00:48Z</time>
      </trkpt>
      <trkpt lat="48.40599" lon="2.6445">
        <ele>129</ele>
        <time>2023-02-10T14:00:59Z</time>
      </trkpt>
      <trkpt lat="48.40633" lon="2.64371">
        <ele>133</ele>
        <time>2023-02-10T14:01:14Z</time>
      </trkpt>
      <trkpt lat="48.40622" lon="2.64303">
        <ele>134</ele>
        <time>2023-02-10T14:01:25Z</time>
      </trkpt>
      <trkpt lat="48.40633" lon="2.64265">
        <ele>135</ele>
        <time>2023-02-10T14:01:31Z</time>
      </trkpt>
      <trkpt lat="48.40649" lon="2.6424">
        <ele>136</ele>
        <time>2023-02-10T14:01:36Z</time>
      </trkpt>
      <trkpt lat="48.40662" lon="2.64198">
        <ele>137</ele>
        <time>2023-02-10T14:01:44Z</time>
      </trkpt>
      <trkpt lat="48.40688" lon="2.64133">
        <ele>136</ele>
        <time>2023-02-10T14:01:55Z</time>
      </trkpt>
      <trkpt lat="48.40694" lon="2.64104">
        <ele>136</ele>
        <time>2023-02-10T14:02:00Z</time>
      </trkpt>
      <trkpt lat="48.40739" lon="2.64155">
        <ele>136</ele>
        <time>2023-02-10T14:02:13Z</time>
      </trkpt>
      <trkpt lat="48.408" lon="2.64279">
        <ele>137</ele>
        <time>2023-02-10T14:02:37Z</time>
      </trkpt>
      <trkpt lat="48.4086" lon="2.64649">
        <ele>138</ele>
        <time>2023-02-10T14:03:36Z</time>
      </trkpt>
      <trkpt lat="48.40887" lon="2.64763">
        <ele>137</ele>
        <time>2023-02-10T14:03:55Z</time>
      </trkpt>
      <trkpt lat="48.40979" lon="2.65053">
        <ele>137</ele>
        <time>2023-02-10T14:04:45Z</time>
      </trkpt>
      <trkpt lat="48.41012" lon="2.65147">
        <ele>135</ele>
        <time>2023-02-10T14:05:01Z</time>
      </trkpt>
      <trkpt lat="48.41159" lon="2.65595">
        <ele>136</ele>
        <time>2023-02-10T14:06:19Z</time>
      </trkpt>
      <trkpt lat="48.41121" lon="2.65587">
        <ele>136</ele>
        <time>2023-02-10T14:06:28Z</time>
      </trkpt>
      <trkpt lat="48.40807" lon="2.65458">
        <ele>134</ele>
        <time>2023-02-10T14:07:44Z</time>
      </trkpt>
      <trkpt lat="48.40863" lon="2.65952">
        <ele>138</ele>
        <time>2023-02-10T14:09:01Z</time>
      </trkpt>
      <trkpt lat="48.40775" lon="2.66183">
        <ele>131</ele>
        <time>2023-02-10T14:09:43Z</time>
      </trkpt>
      <trkpt lat="48.40775" lon="2.6643">
        <ele>133</ele>
        <time>2023-02-10T14:10:21Z</time>
      </trkpt>
      <trkpt lat="48.40779" lon="2.66491">
        <ele>133</ele>
        <time>2023-02-10T14:10:31Z</time>
      </trkpt>
      <trkpt lat="48.40809" lon="2.66773">
        <ele>132</ele>
        <time>2023-02-10T14:11:15Z</time>
      </trkpt>
      <trkpt lat="48.40824" lon="2.6687">
        <ele>133</ele>
        <time>2023-02-10T14:11:30Z</time>
      </trkpt>
      <trkpt lat="48.40891" lon="2.66816">
        <ele>134</ele>
        <time>2023-02-10T14:11:48Z</time>
      </trkpt>
      <trkpt lat="48.40967" lon="2.66824">
        <ele>130</ele>
        <time>2023-02-10T14:12:06Z</time>
      </trkpt>
      <trkpt lat="48.41033" lon="2.67349">
        <ele>106</ele>
        <time>2023-02-10T14:13:29Z</time>
      </trkpt>
      <trkpt lat="48.40993" lon="2.67478">
        <ele>104</ele>
        <time>2023-02-10T14:13:51Z</time>
      </trkpt>
      <trkpt lat="48.40871" lon="2.67808">
        <ele>95</ele>
        <time>2023-02-10T14:14:49Z</time>
      </trkpt>
      <trkpt lat="48.40836" lon="2.67914">
        <ele>94</ele>
        <time>2023-02-10T14:15:08Z</time>
      </trkpt>
      <trkpt lat="48.40698" lon="2.67472">
        <ele>96</ele>
        <time>2023-02-10T14:16:23Z</time>
      </trkpt>
      <trkpt lat="48.40634" lon="2.67556">
        <ele>89</ele>
        <time>2023-02-10T14:16:43Z</time>
      </trkpt>
      <trkpt lat="48.40545" lon="2.67681">
        <ele>85</ele>
        <time>2023-02-10T14:17:12Z</time>
      </trkpt>
      <trkpt lat="48.4045" lon="2.6835">
        <ele>83</ele>
        <time>2023-02-10T14:18:58Z</time>
      </trkpt>
    </trkseg>
  </trk>
</gpx>